<?xml version="1.0" encoding="UTF-8" standalone="no" ?>
<gpx xmlns="http://www.topografix.com/GPX/1/1" xmlns:xsi="http://www.w3.org/2001/XMLSchema-instance" xsi:schemaLocation="http://www.topografix.com/GPX/1/1 http://www.topografix.com/GPX/1/1/gpx.xsd" version="1.1" creator="VisuGPX - https://www.visugpx.com">
  <metadata>
    <name>ST_RAD_14.5km  600</name>
    <desc><![CDATA[sortie type  samedi matin  14km]]></desc>
  </metadata>
  <trk>
    <name><![CDATA[st RA 14kmv1]]></name>
    <trkseg>
      <trkpt lat="44.33577" lon="2.62928">
        <ele>648.065918</ele>
        <time>2014-03-08T07:23:38Z</time>
      </trkpt>
      <trkpt lat="44.33566" lon="2.62934">
        <ele>647.1044922</ele>
        <time>2014-03-08T07:23:43Z</time>
      </trkpt>
      <trkpt lat="44.33563" lon="2.62947">
        <ele>646.6240234</ele>
        <time>2014-03-08T07:23:47Z</time>
      </trkpt>
      <trkpt lat="44.33563" lon="2.62951">
        <ele>646.1433105</ele>
        <time>2014-03-08T07:23:48Z</time>
      </trkpt>
      <trkpt lat="44.33566" lon="2.62972">
        <ele>643.2592773</ele>
        <time>2014-03-08T07:23:53Z</time>
      </trkpt>
      <trkpt lat="44.33567" lon="2.62989">
        <ele>641.8173828</ele>
        <time>2014-03-08T07:23:57Z</time>
      </trkpt>
      <trkpt lat="44.33568" lon="2.63009">
        <ele>639.8947754</ele>
        <time>2014-03-08T07:24:02Z</time>
      </trkpt>
      <trkpt lat="44.3357" lon="2.63016">
        <ele>638.9335938</ele>
        <time>2014-03-08T07:24:04Z</time>
      </trkpt>
      <trkpt lat="44.33569" lon="2.63034">
        <ele>638.9335938</ele>
        <time>2014-03-08T07:24:10Z</time>
      </trkpt>
      <trkpt lat="44.33562" lon="2.63043">
        <ele>637.4914551</ele>
        <time>2014-03-08T07:24:14Z</time>
      </trkpt>
      <trkpt lat="44.33562" lon="2.63059">
        <ele>637.0107422</ele>
        <time>2014-03-08T07:24:19Z</time>
      </trkpt>
      <trkpt lat="44.3356" lon="2.63071">
        <ele>637.4914551</ele>
        <time>2014-03-08T07:24:22Z</time>
      </trkpt>
      <trkpt lat="44.33557" lon="2.63091">
        <ele>639.4140625</ele>
        <time>2014-03-08T07:24:27Z</time>
      </trkpt>
      <trkpt lat="44.3355" lon="2.63113">
        <ele>639.4140625</ele>
        <time>2014-03-08T07:24:32Z</time>
      </trkpt>
      <trkpt lat="44.33544" lon="2.63129">
        <ele>639.4140625</ele>
        <time>2014-03-08T07:24:36Z</time>
      </trkpt>
      <trkpt lat="44.33536" lon="2.63146">
        <ele>639.8947754</ele>
        <time>2014-03-08T07:24:41Z</time>
      </trkpt>
      <trkpt lat="44.33534" lon="2.63152">
        <ele>640.855957</ele>
        <time>2014-03-08T07:24:43Z</time>
      </trkpt>
      <trkpt lat="44.33528" lon="2.63165">
        <ele>639.8947754</ele>
        <time>2014-03-08T07:24:47Z</time>
      </trkpt>
      <trkpt lat="44.33522" lon="2.63187">
        <ele>639.8947754</ele>
        <time>2014-03-08T07:24:52Z</time>
      </trkpt>
      <trkpt lat="44.33517" lon="2.63211">
        <ele>639.4140625</ele>
        <time>2014-03-08T07:24:58Z</time>
      </trkpt>
      <trkpt lat="44.33513" lon="2.63231">
        <ele>639.8947754</ele>
        <time>2014-03-08T07:25:03Z</time>
      </trkpt>
      <trkpt lat="44.33508" lon="2.63249">
        <ele>639.4140625</ele>
        <time>2014-03-08T07:25:08Z</time>
      </trkpt>
      <trkpt lat="44.33501" lon="2.63272">
        <ele>637.4914551</ele>
        <time>2014-03-08T07:25:14Z</time>
      </trkpt>
      <trkpt lat="44.33497" lon="2.63295">
        <ele>636.5302734</ele>
        <time>2014-03-08T07:25:20Z</time>
      </trkpt>
      <trkpt lat="44.33492" lon="2.63314">
        <ele>634.6074219</ele>
        <time>2014-03-08T07:25:25Z</time>
      </trkpt>
      <trkpt lat="44.33488" lon="2.63334">
        <ele>632.6848145</ele>
        <time>2014-03-08T07:25:30Z</time>
      </trkpt>
      <trkpt lat="44.33484" lon="2.63356">
        <ele>631.2429199</ele>
        <time>2014-03-08T07:25:36Z</time>
      </trkpt>
      <trkpt lat="44.33483" lon="2.63374">
        <ele>629.8007813</ele>
        <time>2014-03-08T07:25:41Z</time>
      </trkpt>
      <trkpt lat="44.3348" lon="2.63389">
        <ele>629.3200684</ele>
        <time>2014-03-08T07:25:45Z</time>
      </trkpt>
      <trkpt lat="44.33478" lon="2.63406">
        <ele>630.2814941</ele>
        <time>2014-03-08T07:25:50Z</time>
      </trkpt>
      <trkpt lat="44.33478" lon="2.63425">
        <ele>629.3200684</ele>
        <time>2014-03-08T07:25:55Z</time>
      </trkpt>
      <trkpt lat="44.33474" lon="2.63442">
        <ele>627.3977051</ele>
        <time>2014-03-08T07:26:00Z</time>
      </trkpt>
      <trkpt lat="44.33465" lon="2.63467">
        <ele>626.9169922</ele>
        <time>2014-03-08T07:26:07Z</time>
      </trkpt>
      <trkpt lat="44.33459" lon="2.63486">
        <ele>627.8781738</ele>
        <time>2014-03-08T07:26:12Z</time>
      </trkpt>
      <trkpt lat="44.33454" lon="2.63504">
        <ele>627.8781738</ele>
        <time>2014-03-08T07:26:17Z</time>
      </trkpt>
      <trkpt lat="44.33449" lon="2.63523">
        <ele>627.3977051</ele>
        <time>2014-03-08T07:26:22Z</time>
      </trkpt>
      <trkpt lat="44.33448" lon="2.63545">
        <ele>626.4362793</ele>
        <time>2014-03-08T07:26:27Z</time>
      </trkpt>
      <trkpt lat="44.33444" lon="2.63568">
        <ele>624.5136719</ele>
        <time>2014-03-08T07:26:33Z</time>
      </trkpt>
      <trkpt lat="44.33435" lon="2.63584">
        <ele>625.4748535</ele>
        <time>2014-03-08T07:26:38Z</time>
      </trkpt>
      <trkpt lat="44.33426" lon="2.63597">
        <ele>628.8395996</ele>
        <time>2014-03-08T07:26:43Z</time>
      </trkpt>
      <trkpt lat="44.33417" lon="2.63609">
        <ele>631.7233887</ele>
        <time>2014-03-08T07:26:48Z</time>
      </trkpt>
      <trkpt lat="44.33408" lon="2.6362">
        <ele>634.126709</ele>
        <time>2014-03-08T07:26:53Z</time>
      </trkpt>
      <trkpt lat="44.33396" lon="2.63637">
        <ele>637.972168</ele>
        <time>2014-03-08T07:27:00Z</time>
      </trkpt>
      <trkpt lat="44.33393" lon="2.63642">
        <ele>639.4140625</ele>
        <time>2014-03-08T07:27:03Z</time>
      </trkpt>
      <trkpt lat="44.33384" lon="2.63656">
        <ele>641.8173828</ele>
        <time>2014-03-08T07:27:08Z</time>
      </trkpt>
      <trkpt lat="44.33379" lon="2.63663">
        <ele>645.1818848</ele>
        <time>2014-03-08T07:27:12Z</time>
      </trkpt>
      <trkpt lat="44.33372" lon="2.63676">
        <ele>647.5852051</ele>
        <time>2014-03-08T07:27:17Z</time>
      </trkpt>
      <trkpt lat="44.33365" lon="2.63687">
        <ele>649.5078125</ele>
        <time>2014-03-08T07:27:22Z</time>
      </trkpt>
      <trkpt lat="44.33358" lon="2.637">
        <ele>649.9885254</ele>
        <time>2014-03-08T07:27:27Z</time>
      </trkpt>
      <trkpt lat="44.33351" lon="2.63716">
        <ele>652.3918457</ele>
        <time>2014-03-08T07:27:34Z</time>
      </trkpt>
      <trkpt lat="44.33348" lon="2.6373">
        <ele>651.9111328</ele>
        <time>2014-03-08T07:27:40Z</time>
      </trkpt>
      <trkpt lat="44.33345" lon="2.63743">
        <ele>649.5078125</ele>
        <time>2014-03-08T07:27:46Z</time>
      </trkpt>
      <trkpt lat="44.33342" lon="2.63757">
        <ele>649.9885254</ele>
        <time>2014-03-08T07:27:51Z</time>
      </trkpt>
      <trkpt lat="44.33339" lon="2.63767">
        <ele>649.9885254</ele>
        <time>2014-03-08T07:27:55Z</time>
      </trkpt>
      <trkpt lat="44.33334" lon="2.63786">
        <ele>650.949707</ele>
        <time>2014-03-08T07:28:02Z</time>
      </trkpt>
      <trkpt lat="44.33328" lon="2.63803">
        <ele>652.3918457</ele>
        <time>2014-03-08T07:28:08Z</time>
      </trkpt>
      <trkpt lat="44.33324" lon="2.63817">
        <ele>653.3532715</ele>
        <time>2014-03-08T07:28:13Z</time>
      </trkpt>
      <trkpt lat="44.33319" lon="2.63835">
        <ele>655.2758789</ele>
        <time>2014-03-08T07:28:19Z</time>
      </trkpt>
      <trkpt lat="44.33316" lon="2.63853">
        <ele>656.7177734</ele>
        <time>2014-03-08T07:28:25Z</time>
      </trkpt>
      <trkpt lat="44.33313" lon="2.63869">
        <ele>657.1984863</ele>
        <time>2014-03-08T07:28:31Z</time>
      </trkpt>
      <trkpt lat="44.33307" lon="2.6389">
        <ele>657.6791992</ele>
        <time>2014-03-08T07:28:38Z</time>
      </trkpt>
      <trkpt lat="44.33302" lon="2.63911">
        <ele>659.1210938</ele>
        <time>2014-03-08T07:28:45Z</time>
      </trkpt>
      <trkpt lat="44.33297" lon="2.63933">
        <ele>660.0822754</ele>
        <time>2014-03-08T07:28:52Z</time>
      </trkpt>
      <trkpt lat="44.33295" lon="2.63953">
        <ele>661.0437012</ele>
        <time>2014-03-08T07:28:58Z</time>
      </trkpt>
      <trkpt lat="44.33293" lon="2.6397">
        <ele>661.5244141</ele>
        <time>2014-03-08T07:29:03Z</time>
      </trkpt>
      <trkpt lat="44.33291" lon="2.63988">
        <ele>661.5244141</ele>
        <time>2014-03-08T07:29:09Z</time>
      </trkpt>
      <trkpt lat="44.33287" lon="2.64007">
        <ele>662.4855957</ele>
        <time>2014-03-08T07:29:15Z</time>
      </trkpt>
      <trkpt lat="44.33282" lon="2.64026">
        <ele>662.4855957</ele>
        <time>2014-03-08T07:29:20Z</time>
      </trkpt>
      <trkpt lat="44.33279" lon="2.64041">
        <ele>663.4470215</ele>
        <time>2014-03-08T07:29:25Z</time>
      </trkpt>
      <trkpt lat="44.33278" lon="2.64057">
        <ele>662.4855957</ele>
        <time>2014-03-08T07:29:30Z</time>
      </trkpt>
      <trkpt lat="44.33278" lon="2.6407">
        <ele>662.005127</ele>
        <time>2014-03-08T07:29:34Z</time>
      </trkpt>
      <trkpt lat="44.33273" lon="2.64092">
        <ele>660.5629883</ele>
        <time>2014-03-08T07:29:40Z</time>
      </trkpt>
      <trkpt lat="44.33269" lon="2.64113">
        <ele>661.0437012</ele>
        <time>2014-03-08T07:29:46Z</time>
      </trkpt>
      <trkpt lat="44.33265" lon="2.6413">
        <ele>661.5244141</ele>
        <time>2014-03-08T07:29:51Z</time>
      </trkpt>
      <trkpt lat="44.33262" lon="2.64145">
        <ele>662.4855957</ele>
        <time>2014-03-08T07:29:56Z</time>
      </trkpt>
      <trkpt lat="44.33257" lon="2.64173">
        <ele>663.9274902</ele>
        <time>2014-03-08T07:30:04Z</time>
      </trkpt>
      <trkpt lat="44.33251" lon="2.64196">
        <ele>665.3696289</ele>
        <time>2014-03-08T07:30:11Z</time>
      </trkpt>
      <trkpt lat="44.33244" lon="2.64215">
        <ele>665.8503418</ele>
        <time>2014-03-08T07:30:17Z</time>
      </trkpt>
      <trkpt lat="44.33238" lon="2.64231">
        <ele>667.2922363</ele>
        <time>2014-03-08T07:30:22Z</time>
      </trkpt>
      <trkpt lat="44.33233" lon="2.64246">
        <ele>667.7727051</ele>
        <time>2014-03-08T07:30:27Z</time>
      </trkpt>
      <trkpt lat="44.33227" lon="2.64261">
        <ele>668.2536621</ele>
        <time>2014-03-08T07:30:32Z</time>
      </trkpt>
      <trkpt lat="44.33218" lon="2.64281">
        <ele>668.734375</ele>
        <time>2014-03-08T07:30:39Z</time>
      </trkpt>
      <trkpt lat="44.3321" lon="2.643">
        <ele>669.2150879</ele>
        <time>2014-03-08T07:30:45Z</time>
      </trkpt>
      <trkpt lat="44.33202" lon="2.64319">
        <ele>670.6569824</ele>
        <time>2014-03-08T07:30:51Z</time>
      </trkpt>
      <trkpt lat="44.33194" lon="2.6434">
        <ele>671.1376953</ele>
        <time>2014-03-08T07:30:58Z</time>
      </trkpt>
      <trkpt lat="44.33186" lon="2.64359">
        <ele>671.6181641</ele>
        <time>2014-03-08T07:31:04Z</time>
      </trkpt>
      <trkpt lat="44.33178" lon="2.64383">
        <ele>672.098877</ele>
        <time>2014-03-08T07:31:11Z</time>
      </trkpt>
      <trkpt lat="44.33172" lon="2.64406">
        <ele>672.098877</ele>
        <time>2014-03-08T07:31:18Z</time>
      </trkpt>
      <trkpt lat="44.33167" lon="2.64422">
        <ele>672.098877</ele>
        <time>2014-03-08T07:31:23Z</time>
      </trkpt>
      <trkpt lat="44.33163" lon="2.64443">
        <ele>672.5795898</ele>
        <time>2014-03-08T07:31:29Z</time>
      </trkpt>
      <trkpt lat="44.33158" lon="2.6446">
        <ele>673.5410156</ele>
        <time>2014-03-08T07:31:34Z</time>
      </trkpt>
      <trkpt lat="44.33153" lon="2.64475">
        <ele>673.0603027</ele>
        <time>2014-03-08T07:31:39Z</time>
      </trkpt>
      <trkpt lat="44.33144" lon="2.64497">
        <ele>674.0214844</ele>
        <time>2014-03-08T07:31:46Z</time>
      </trkpt>
      <trkpt lat="44.33137" lon="2.64515">
        <ele>674.5021973</ele>
        <time>2014-03-08T07:31:52Z</time>
      </trkpt>
      <trkpt lat="44.3313" lon="2.64539">
        <ele>674.5021973</ele>
        <time>2014-03-08T07:31:59Z</time>
      </trkpt>
      <trkpt lat="44.33123" lon="2.64558">
        <ele>675.4633789</ele>
        <time>2014-03-08T07:32:05Z</time>
      </trkpt>
      <trkpt lat="44.33119" lon="2.64568">
        <ele>675.4633789</ele>
        <time>2014-03-08T07:32:08Z</time>
      </trkpt>
      <trkpt lat="44.33111" lon="2.6458">
        <ele>675.4633789</ele>
        <time>2014-03-08T07:32:13Z</time>
      </trkpt>
      <trkpt lat="44.33107" lon="2.64602">
        <ele>674.0214844</ele>
        <time>2014-03-08T07:32:19Z</time>
      </trkpt>
      <trkpt lat="44.33107" lon="2.64605">
        <ele>674.0214844</ele>
        <time>2014-03-08T07:32:20Z</time>
      </trkpt>
      <trkpt lat="44.33106" lon="2.64628">
        <ele>672.098877</ele>
        <time>2014-03-08T07:32:26Z</time>
      </trkpt>
      <trkpt lat="44.33101" lon="2.64646">
        <ele>671.1376953</ele>
        <time>2014-03-08T07:32:31Z</time>
      </trkpt>
      <trkpt lat="44.33096" lon="2.6467">
        <ele>669.2150879</ele>
        <time>2014-03-08T07:32:37Z</time>
      </trkpt>
      <trkpt lat="44.33091" lon="2.64693">
        <ele>667.7727051</ele>
        <time>2014-03-08T07:32:43Z</time>
      </trkpt>
      <trkpt lat="44.33085" lon="2.6471">
        <ele>666.3308105</ele>
        <time>2014-03-08T07:32:48Z</time>
      </trkpt>
      <trkpt lat="44.33079" lon="2.64733">
        <ele>666.8115234</ele>
        <time>2014-03-08T07:32:54Z</time>
      </trkpt>
      <trkpt lat="44.33074" lon="2.64752">
        <ele>667.2922363</ele>
        <time>2014-03-08T07:32:59Z</time>
      </trkpt>
      <trkpt lat="44.33072" lon="2.64775">
        <ele>666.8115234</ele>
        <time>2014-03-08T07:33:05Z</time>
      </trkpt>
      <trkpt lat="44.3307" lon="2.64791">
        <ele>667.2922363</ele>
        <time>2014-03-08T07:33:09Z</time>
      </trkpt>
      <trkpt lat="44.3307" lon="2.64806">
        <ele>666.8115234</ele>
        <time>2014-03-08T07:33:13Z</time>
      </trkpt>
      <trkpt lat="44.33067" lon="2.64821">
        <ele>666.8115234</ele>
        <time>2014-03-08T07:33:17Z</time>
      </trkpt>
      <trkpt lat="44.33064" lon="2.6484">
        <ele>665.3696289</ele>
        <time>2014-03-08T07:33:22Z</time>
      </trkpt>
      <trkpt lat="44.33059" lon="2.64861">
        <ele>663.4470215</ele>
        <time>2014-03-08T07:33:27Z</time>
      </trkpt>
      <trkpt lat="44.33056" lon="2.64874">
        <ele>660.5629883</ele>
        <time>2014-03-08T07:33:31Z</time>
      </trkpt>
      <trkpt lat="44.33054" lon="2.64888">
        <ele>658.6403809</ele>
        <time>2014-03-08T07:33:35Z</time>
      </trkpt>
      <trkpt lat="44.33054" lon="2.64912">
        <ele>654.795166</ele>
        <time>2014-03-08T07:33:41Z</time>
      </trkpt>
      <trkpt lat="44.33052" lon="2.64934">
        <ele>652.3918457</ele>
        <time>2014-03-08T07:33:46Z</time>
      </trkpt>
      <trkpt lat="44.33049" lon="2.64956">
        <ele>649.5078125</ele>
        <time>2014-03-08T07:33:51Z</time>
      </trkpt>
      <trkpt lat="44.33046" lon="2.64977">
        <ele>648.5463867</ele>
        <time>2014-03-08T07:33:56Z</time>
      </trkpt>
      <trkpt lat="44.33046" lon="2.64994">
        <ele>647.5852051</ele>
        <time>2014-03-08T07:34:00Z</time>
      </trkpt>
      <trkpt lat="44.33042" lon="2.65015">
        <ele>647.5852051</ele>
        <time>2014-03-08T07:34:05Z</time>
      </trkpt>
      <trkpt lat="44.33038" lon="2.65034">
        <ele>649.0270996</ele>
        <time>2014-03-08T07:34:10Z</time>
      </trkpt>
      <trkpt lat="44.33033" lon="2.65051">
        <ele>650.4692383</ele>
        <time>2014-03-08T07:34:15Z</time>
      </trkpt>
      <trkpt lat="44.33026" lon="2.65068">
        <ele>650.949707</ele>
        <time>2014-03-08T07:34:21Z</time>
      </trkpt>
      <trkpt lat="44.33021" lon="2.65075">
        <ele>650.4692383</ele>
        <time>2014-03-08T07:34:24Z</time>
      </trkpt>
      <trkpt lat="44.33018" lon="2.65079">
        <ele>650.4692383</ele>
        <time>2014-03-08T07:34:26Z</time>
      </trkpt>
      <trkpt lat="44.3301" lon="2.65087">
        <ele>650.4692383</ele>
        <time>2014-03-08T07:34:30Z</time>
      </trkpt>
      <trkpt lat="44.32997" lon="2.65095">
        <ele>652.3918457</ele>
        <time>2014-03-08T07:34:36Z</time>
      </trkpt>
      <trkpt lat="44.32988" lon="2.65106">
        <ele>654.795166</ele>
        <time>2014-03-08T07:34:42Z</time>
      </trkpt>
      <trkpt lat="44.32987" lon="2.65107">
        <ele>654.795166</ele>
        <time>2014-03-08T07:34:43Z</time>
      </trkpt>
      <trkpt lat="44.32982" lon="2.65114">
        <ele>655.7565918</ele>
        <time>2014-03-08T07:34:48Z</time>
      </trkpt>
      <trkpt lat="44.32974" lon="2.65126">
        <ele>655.7565918</ele>
        <time>2014-03-08T07:34:54Z</time>
      </trkpt>
      <trkpt lat="44.32963" lon="2.6514">
        <ele>656.2370605</ele>
        <time>2014-03-08T07:35:00Z</time>
      </trkpt>
      <trkpt lat="44.32956" lon="2.6515">
        <ele>656.7177734</ele>
        <time>2014-03-08T07:35:05Z</time>
      </trkpt>
      <trkpt lat="44.32942" lon="2.65161">
        <ele>657.6791992</ele>
        <time>2014-03-08T07:35:13Z</time>
      </trkpt>
      <trkpt lat="44.32933" lon="2.65167">
        <ele>658.6403809</ele>
        <time>2014-03-08T07:35:18Z</time>
      </trkpt>
      <trkpt lat="44.32926" lon="2.65179">
        <ele>660.0822754</ele>
        <time>2014-03-08T07:35:23Z</time>
      </trkpt>
      <trkpt lat="44.32918" lon="2.65195">
        <ele>660.5629883</ele>
        <time>2014-03-08T07:35:29Z</time>
      </trkpt>
      <trkpt lat="44.32913" lon="2.65205">
        <ele>661.0437012</ele>
        <time>2014-03-08T07:35:32Z</time>
      </trkpt>
      <trkpt lat="44.32904" lon="2.65222">
        <ele>661.0437012</ele>
        <time>2014-03-08T07:35:38Z</time>
      </trkpt>
      <trkpt lat="44.32896" lon="2.6524">
        <ele>662.4855957</ele>
        <time>2014-03-08T07:35:44Z</time>
      </trkpt>
      <trkpt lat="44.32891" lon="2.65255">
        <ele>665.3696289</ele>
        <time>2014-03-08T07:35:49Z</time>
      </trkpt>
      <trkpt lat="44.32888" lon="2.65272">
        <ele>666.3308105</ele>
        <time>2014-03-08T07:35:54Z</time>
      </trkpt>
      <trkpt lat="44.32888" lon="2.65291">
        <ele>665.8503418</ele>
        <time>2014-03-08T07:36:00Z</time>
      </trkpt>
      <trkpt lat="44.32887" lon="2.65304">
        <ele>665.3696289</ele>
        <time>2014-03-08T07:36:04Z</time>
      </trkpt>
      <trkpt lat="44.32884" lon="2.65322">
        <ele>665.8503418</ele>
        <time>2014-03-08T07:36:10Z</time>
      </trkpt>
      <trkpt lat="44.32882" lon="2.65338">
        <ele>667.2922363</ele>
        <time>2014-03-08T07:36:15Z</time>
      </trkpt>
      <trkpt lat="44.32881" lon="2.65354">
        <ele>667.2922363</ele>
        <time>2014-03-08T07:36:20Z</time>
      </trkpt>
      <trkpt lat="44.32881" lon="2.65357">
        <ele>666.8115234</ele>
        <time>2014-03-08T07:36:21Z</time>
      </trkpt>
      <trkpt lat="44.3288" lon="2.65376">
        <ele>667.2922363</ele>
        <time>2014-03-08T07:36:27Z</time>
      </trkpt>
      <trkpt lat="44.3288" lon="2.65395">
        <ele>668.2536621</ele>
        <time>2014-03-08T07:36:32Z</time>
      </trkpt>
      <trkpt lat="44.32881" lon="2.65417">
        <ele>670.6569824</ele>
        <time>2014-03-08T07:36:38Z</time>
      </trkpt>
      <trkpt lat="44.32884" lon="2.65437">
        <ele>670.1762695</ele>
        <time>2014-03-08T07:36:44Z</time>
      </trkpt>
      <trkpt lat="44.32889" lon="2.6545">
        <ele>669.6958008</ele>
        <time>2014-03-08T07:36:48Z</time>
      </trkpt>
      <trkpt lat="44.32899" lon="2.65458">
        <ele>670.1762695</ele>
        <time>2014-03-08T07:36:53Z</time>
      </trkpt>
      <trkpt lat="44.32911" lon="2.65471">
        <ele>669.2150879</ele>
        <time>2014-03-08T07:36:59Z</time>
      </trkpt>
      <trkpt lat="44.32914" lon="2.65474">
        <ele>669.2150879</ele>
        <time>2014-03-08T07:37:01Z</time>
      </trkpt>
      <trkpt lat="44.32914" lon="2.65475">
        <ele>669.2150879</ele>
        <time>2014-03-08T07:37:03Z</time>
      </trkpt>
      <trkpt lat="44.32922" lon="2.65485">
        <ele>668.734375</ele>
        <time>2014-03-08T07:37:08Z</time>
      </trkpt>
      <trkpt lat="44.32924" lon="2.65498">
        <ele>669.2150879</ele>
        <time>2014-03-08T07:37:12Z</time>
      </trkpt>
      <trkpt lat="44.32924" lon="2.65501">
        <ele>669.6958008</ele>
        <time>2014-03-08T07:37:13Z</time>
      </trkpt>
      <trkpt lat="44.32923" lon="2.6551">
        <ele>669.6958008</ele>
        <time>2014-03-08T07:37:16Z</time>
      </trkpt>
      <trkpt lat="44.32922" lon="2.65528">
        <ele>670.1762695</ele>
        <time>2014-03-08T07:37:21Z</time>
      </trkpt>
      <trkpt lat="44.32918" lon="2.65543">
        <ele>671.1376953</ele>
        <time>2014-03-08T07:37:26Z</time>
      </trkpt>
      <trkpt lat="44.32915" lon="2.6556">
        <ele>672.098877</ele>
        <time>2014-03-08T07:37:31Z</time>
      </trkpt>
      <trkpt lat="44.32911" lon="2.65575">
        <ele>673.5410156</ele>
        <time>2014-03-08T07:37:36Z</time>
      </trkpt>
      <trkpt lat="44.32906" lon="2.65592">
        <ele>675.4633789</ele>
        <time>2014-03-08T07:37:42Z</time>
      </trkpt>
      <trkpt lat="44.32897" lon="2.65608">
        <ele>679.7893066</ele>
        <time>2014-03-08T07:37:48Z</time>
      </trkpt>
      <trkpt lat="44.32889" lon="2.65623">
        <ele>682.192627</ele>
        <time>2014-03-08T07:37:53Z</time>
      </trkpt>
      <trkpt lat="44.32888" lon="2.65637">
        <ele>683.6345215</ele>
        <time>2014-03-08T07:37:58Z</time>
      </trkpt>
      <trkpt lat="44.32891" lon="2.65653">
        <ele>685.0769043</ele>
        <time>2014-03-08T07:38:04Z</time>
      </trkpt>
      <trkpt lat="44.32895" lon="2.65671">
        <ele>686.9992676</ele>
        <time>2014-03-08T07:38:11Z</time>
      </trkpt>
      <trkpt lat="44.32899" lon="2.65686">
        <ele>688.9221191</ele>
        <time>2014-03-08T07:38:16Z</time>
      </trkpt>
      <trkpt lat="44.32909" lon="2.65697">
        <ele>691.3251953</ele>
        <time>2014-03-08T07:38:21Z</time>
      </trkpt>
      <trkpt lat="44.32916" lon="2.6571">
        <ele>693.2478027</ele>
        <time>2014-03-08T07:38:26Z</time>
      </trkpt>
      <trkpt lat="44.32925" lon="2.65719">
        <ele>695.1704102</ele>
        <time>2014-03-08T07:38:31Z</time>
      </trkpt>
      <trkpt lat="44.32935" lon="2.65728">
        <ele>696.1318359</ele>
        <time>2014-03-08T07:38:36Z</time>
      </trkpt>
      <trkpt lat="44.32949" lon="2.65734">
        <ele>697.0930176</ele>
        <time>2014-03-08T07:38:43Z</time>
      </trkpt>
      <trkpt lat="44.32959" lon="2.65736">
        <ele>698.0544434</ele>
        <time>2014-03-08T07:38:47Z</time>
      </trkpt>
      <trkpt lat="44.32973" lon="2.65742">
        <ele>699.4963379</ele>
        <time>2014-03-08T07:38:53Z</time>
      </trkpt>
      <trkpt lat="44.32983" lon="2.65747">
        <ele>699.4963379</ele>
        <time>2014-03-08T07:38:57Z</time>
      </trkpt>
      <trkpt lat="44.32998" lon="2.65757">
        <ele>699.015625</ele>
        <time>2014-03-08T07:39:03Z</time>
      </trkpt>
      <trkpt lat="44.3301" lon="2.65765">
        <ele>698.0544434</ele>
        <time>2014-03-08T07:39:08Z</time>
      </trkpt>
      <trkpt lat="44.33021" lon="2.6577">
        <ele>696.6125488</ele>
        <time>2014-03-08T07:39:12Z</time>
      </trkpt>
      <trkpt lat="44.33036" lon="2.65777">
        <ele>694.6896973</ele>
        <time>2014-03-08T07:39:17Z</time>
      </trkpt>
      <trkpt lat="44.33042" lon="2.6579">
        <ele>692.767334</ele>
        <time>2014-03-08T07:39:21Z</time>
      </trkpt>
      <trkpt lat="44.33044" lon="2.65796">
        <ele>692.767334</ele>
        <time>2014-03-08T07:39:23Z</time>
      </trkpt>
      <trkpt lat="44.33046" lon="2.6582">
        <ele>694.2092285</ele>
        <time>2014-03-08T07:39:30Z</time>
      </trkpt>
      <trkpt lat="44.33051" lon="2.65834">
        <ele>694.6896973</ele>
        <time>2014-03-08T07:39:35Z</time>
      </trkpt>
      <trkpt lat="44.33059" lon="2.65848">
        <ele>695.1704102</ele>
        <time>2014-03-08T07:39:41Z</time>
      </trkpt>
      <trkpt lat="44.33066" lon="2.65864">
        <ele>697.5737305</ele>
        <time>2014-03-08T07:39:47Z</time>
      </trkpt>
      <trkpt lat="44.33067" lon="2.65867">
        <ele>698.0544434</ele>
        <time>2014-03-08T07:39:48Z</time>
      </trkpt>
      <trkpt lat="44.33067" lon="2.65886">
        <ele>701.4191895</ele>
        <time>2014-03-08T07:39:55Z</time>
      </trkpt>
      <trkpt lat="44.3307" lon="2.65899">
        <ele>701.8999023</ele>
        <time>2014-03-08T07:40:00Z</time>
      </trkpt>
      <trkpt lat="44.33074" lon="2.65917">
        <ele>703.8225098</ele>
        <time>2014-03-08T07:40:06Z</time>
      </trkpt>
      <trkpt lat="44.33081" lon="2.65931">
        <ele>704.7836914</ele>
        <time>2014-03-08T07:40:11Z</time>
      </trkpt>
      <trkpt lat="44.33087" lon="2.65937">
        <ele>707.6677246</ele>
        <time>2014-03-08T07:40:16Z</time>
      </trkpt>
      <trkpt lat="44.33099" lon="2.65939">
        <ele>710.5515137</ele>
        <time>2014-03-08T07:40:21Z</time>
      </trkpt>
      <trkpt lat="44.33113" lon="2.65943">
        <ele>711.5129395</ele>
        <time>2014-03-08T07:40:27Z</time>
      </trkpt>
      <trkpt lat="44.3313" lon="2.65944">
        <ele>714.8774414</ele>
        <time>2014-03-08T07:40:34Z</time>
      </trkpt>
      <trkpt lat="44.33144" lon="2.6595">
        <ele>715.3581543</ele>
        <time>2014-03-08T07:40:40Z</time>
      </trkpt>
      <trkpt lat="44.33151" lon="2.65965">
        <ele>713.9160156</ele>
        <time>2014-03-08T07:40:45Z</time>
      </trkpt>
      <trkpt lat="44.33157" lon="2.65982">
        <ele>715.3581543</ele>
        <time>2014-03-08T07:40:50Z</time>
      </trkpt>
      <trkpt lat="44.33152" lon="2.65994">
        <ele>716.800293</ele>
        <time>2014-03-08T07:40:55Z</time>
      </trkpt>
      <trkpt lat="44.33148" lon="2.65997">
        <ele>716.3195801</ele>
        <time>2014-03-08T07:40:57Z</time>
      </trkpt>
      <trkpt lat="44.33138" lon="2.66009">
        <ele>716.800293</ele>
        <time>2014-03-08T07:41:02Z</time>
      </trkpt>
      <trkpt lat="44.3313" lon="2.66018">
        <ele>715.8388672</ele>
        <time>2014-03-08T07:41:06Z</time>
      </trkpt>
      <trkpt lat="44.3312" lon="2.66031">
        <ele>715.8388672</ele>
        <time>2014-03-08T07:41:11Z</time>
      </trkpt>
      <trkpt lat="44.33109" lon="2.66039">
        <ele>717.2810059</ele>
        <time>2014-03-08T07:41:16Z</time>
      </trkpt>
      <trkpt lat="44.33099" lon="2.66046">
        <ele>717.7614746</ele>
        <time>2014-03-08T07:41:21Z</time>
      </trkpt>
      <trkpt lat="44.33088" lon="2.66052">
        <ele>719.2036133</ele>
        <time>2014-03-08T07:41:26Z</time>
      </trkpt>
      <trkpt lat="44.33077" lon="2.6606">
        <ele>720.1647949</ele>
        <time>2014-03-08T07:41:31Z</time>
      </trkpt>
      <trkpt lat="44.3307" lon="2.66068">
        <ele>721.1262207</ele>
        <time>2014-03-08T07:41:34Z</time>
      </trkpt>
      <trkpt lat="44.33055" lon="2.66083">
        <ele>723.0488281</ele>
        <time>2014-03-08T07:41:41Z</time>
      </trkpt>
      <trkpt lat="44.33044" lon="2.66094">
        <ele>724.0100098</ele>
        <time>2014-03-08T07:41:46Z</time>
      </trkpt>
      <trkpt lat="44.33034" lon="2.66103">
        <ele>724.9714355</ele>
        <time>2014-03-08T07:41:51Z</time>
      </trkpt>
      <trkpt lat="44.33024" lon="2.66109">
        <ele>725.4519043</ele>
        <time>2014-03-08T07:41:56Z</time>
      </trkpt>
      <trkpt lat="44.33014" lon="2.66112">
        <ele>726.4133301</ele>
        <time>2014-03-08T07:42:01Z</time>
      </trkpt>
      <trkpt lat="44.33009" lon="2.66114">
        <ele>726.4133301</ele>
        <time>2014-03-08T07:42:03Z</time>
      </trkpt>
      <trkpt lat="44.32989" lon="2.66107">
        <ele>724.9714355</ele>
        <time>2014-03-08T07:42:11Z</time>
      </trkpt>
      <trkpt lat="44.32975" lon="2.66107">
        <ele>724.4907227</ele>
        <time>2014-03-08T07:42:16Z</time>
      </trkpt>
      <trkpt lat="44.32961" lon="2.66109">
        <ele>724.9714355</ele>
        <time>2014-03-08T07:42:21Z</time>
      </trkpt>
      <trkpt lat="44.32946" lon="2.6611">
        <ele>726.4133301</ele>
        <time>2014-03-08T07:42:27Z</time>
      </trkpt>
      <trkpt lat="44.32935" lon="2.66111">
        <ele>726.894043</ele>
        <time>2014-03-08T07:42:32Z</time>
      </trkpt>
      <trkpt lat="44.32924" lon="2.66116">
        <ele>728.3359375</ele>
        <time>2014-03-08T07:42:37Z</time>
      </trkpt>
      <trkpt lat="44.32917" lon="2.66118">
        <ele>728.8166504</ele>
        <time>2014-03-08T07:42:40Z</time>
      </trkpt>
      <trkpt lat="44.32903" lon="2.66124">
        <ele>730.7392578</ele>
        <time>2014-03-08T07:42:47Z</time>
      </trkpt>
      <trkpt lat="44.32891" lon="2.66126">
        <ele>731.2199707</ele>
        <time>2014-03-08T07:42:52Z</time>
      </trkpt>
      <trkpt lat="44.3288" lon="2.6613">
        <ele>732.1813965</ele>
        <time>2014-03-08T07:42:57Z</time>
      </trkpt>
      <trkpt lat="44.32871" lon="2.66133">
        <ele>732.6621094</ele>
        <time>2014-03-08T07:43:01Z</time>
      </trkpt>
      <trkpt lat="44.32863" lon="2.66136">
        <ele>732.1813965</ele>
        <time>2014-03-08T07:43:05Z</time>
      </trkpt>
      <trkpt lat="44.32847" lon="2.66145">
        <ele>732.1813965</ele>
        <time>2014-03-08T07:43:11Z</time>
      </trkpt>
      <trkpt lat="44.32836" lon="2.66155">
        <ele>732.1813965</ele>
        <time>2014-03-08T07:43:16Z</time>
      </trkpt>
      <trkpt lat="44.32823" lon="2.66171">
        <ele>733.623291</ele>
        <time>2014-03-08T07:43:23Z</time>
      </trkpt>
      <trkpt lat="44.32813" lon="2.66182">
        <ele>733.623291</ele>
        <time>2014-03-08T07:43:28Z</time>
      </trkpt>
      <trkpt lat="44.32806" lon="2.66202">
        <ele>735.5458984</ele>
        <time>2014-03-08T07:43:33Z</time>
      </trkpt>
      <trkpt lat="44.328" lon="2.66225">
        <ele>736.5073242</ele>
        <time>2014-03-08T07:43:39Z</time>
      </trkpt>
      <trkpt lat="44.32793" lon="2.66243">
        <ele>736.5073242</ele>
        <time>2014-03-08T07:43:44Z</time>
      </trkpt>
      <trkpt lat="44.32791" lon="2.66262">
        <ele>738.4299316</ele>
        <time>2014-03-08T07:43:49Z</time>
      </trkpt>
      <trkpt lat="44.32797" lon="2.66287">
        <ele>739.8718262</ele>
        <time>2014-03-08T07:43:57Z</time>
      </trkpt>
      <trkpt lat="44.32805" lon="2.66296">
        <ele>739.3911133</ele>
        <time>2014-03-08T07:44:02Z</time>
      </trkpt>
      <trkpt lat="44.32818" lon="2.66296">
        <ele>741.3137207</ele>
        <time>2014-03-08T07:44:08Z</time>
      </trkpt>
      <trkpt lat="44.3283" lon="2.6629">
        <ele>744.1977539</ele>
        <time>2014-03-08T07:44:13Z</time>
      </trkpt>
      <trkpt lat="44.32847" lon="2.66287">
        <ele>747.5622559</ele>
        <time>2014-03-08T07:44:21Z</time>
      </trkpt>
      <trkpt lat="44.32858" lon="2.66295">
        <ele>749.9658203</ele>
        <time>2014-03-08T07:44:26Z</time>
      </trkpt>
      <trkpt lat="44.32873" lon="2.66307">
        <ele>751.4077148</ele>
        <time>2014-03-08T07:44:33Z</time>
      </trkpt>
      <trkpt lat="44.32882" lon="2.66316">
        <ele>752.3688965</ele>
        <time>2014-03-08T07:44:38Z</time>
      </trkpt>
      <trkpt lat="44.32891" lon="2.66327">
        <ele>752.8496094</ele>
        <time>2014-03-08T07:44:43Z</time>
      </trkpt>
      <trkpt lat="44.32906" lon="2.66338">
        <ele>752.8496094</ele>
        <time>2014-03-08T07:44:51Z</time>
      </trkpt>
      <trkpt lat="44.32916" lon="2.66341">
        <ele>754.291748</ele>
        <time>2014-03-08T07:44:56Z</time>
      </trkpt>
      <trkpt lat="44.32925" lon="2.66347">
        <ele>754.291748</ele>
        <time>2014-03-08T07:45:01Z</time>
      </trkpt>
      <trkpt lat="44.32932" lon="2.66359">
        <ele>754.291748</ele>
        <time>2014-03-08T07:45:06Z</time>
      </trkpt>
      <trkpt lat="44.32933" lon="2.66373">
        <ele>754.7722168</ele>
        <time>2014-03-08T07:45:11Z</time>
      </trkpt>
      <trkpt lat="44.32927" lon="2.66388">
        <ele>755.7336426</ele>
        <time>2014-03-08T07:45:16Z</time>
      </trkpt>
      <trkpt lat="44.32919" lon="2.66404">
        <ele>756.2141113</ele>
        <time>2014-03-08T07:45:22Z</time>
      </trkpt>
      <trkpt lat="44.32912" lon="2.66419">
        <ele>757.1755371</ele>
        <time>2014-03-08T07:45:27Z</time>
      </trkpt>
      <trkpt lat="44.32899" lon="2.66435">
        <ele>757.65625</ele>
        <time>2014-03-08T07:45:34Z</time>
      </trkpt>
      <trkpt lat="44.32883" lon="2.66444">
        <ele>757.65625</ele>
        <time>2014-03-08T07:45:41Z</time>
      </trkpt>
      <trkpt lat="44.32872" lon="2.66445">
        <ele>758.1369629</ele>
        <time>2014-03-08T07:45:46Z</time>
      </trkpt>
      <trkpt lat="44.32862" lon="2.66446">
        <ele>759.0981445</ele>
        <time>2014-03-08T07:45:50Z</time>
      </trkpt>
      <trkpt lat="44.32849" lon="2.6645">
        <ele>759.5788574</ele>
        <time>2014-03-08T07:45:56Z</time>
      </trkpt>
      <trkpt lat="44.32837" lon="2.66456">
        <ele>758.1369629</ele>
        <time>2014-03-08T07:46:02Z</time>
      </trkpt>
      <trkpt lat="44.32826" lon="2.66459">
        <ele>759.0981445</ele>
        <time>2014-03-08T07:46:08Z</time>
      </trkpt>
      <trkpt lat="44.32817" lon="2.66463">
        <ele>759.5788574</ele>
        <time>2014-03-08T07:46:13Z</time>
      </trkpt>
      <trkpt lat="44.32806" lon="2.66472">
        <ele>760.5400391</ele>
        <time>2014-03-08T07:46:18Z</time>
      </trkpt>
      <trkpt lat="44.32793" lon="2.66481">
        <ele>762.9433594</ele>
        <time>2014-03-08T07:46:24Z</time>
      </trkpt>
      <trkpt lat="44.32782" lon="2.66485">
        <ele>764.385498</ele>
        <time>2014-03-08T07:46:29Z</time>
      </trkpt>
      <trkpt lat="44.32768" lon="2.66492">
        <ele>764.8662109</ele>
        <time>2014-03-08T07:46:34Z</time>
      </trkpt>
      <trkpt lat="44.32757" lon="2.665">
        <ele>765.8276367</ele>
        <time>2014-03-08T07:46:38Z</time>
      </trkpt>
      <trkpt lat="44.32745" lon="2.66508">
        <ele>765.3469238</ele>
        <time>2014-03-08T07:46:43Z</time>
      </trkpt>
      <trkpt lat="44.32733" lon="2.66516">
        <ele>765.8276367</ele>
        <time>2014-03-08T07:46:48Z</time>
      </trkpt>
      <trkpt lat="44.32731" lon="2.66517">
        <ele>765.8276367</ele>
        <time>2014-03-08T07:46:49Z</time>
      </trkpt>
      <trkpt lat="44.32718" lon="2.66528">
        <ele>767.75</ele>
        <time>2014-03-08T07:46:54Z</time>
      </trkpt>
      <trkpt lat="44.32713" lon="2.66531">
        <ele>767.2695313</ele>
        <time>2014-03-08T07:46:56Z</time>
      </trkpt>
      <trkpt lat="44.32696" lon="2.66545">
        <ele>769.1921387</ele>
        <time>2014-03-08T07:47:03Z</time>
      </trkpt>
      <trkpt lat="44.32681" lon="2.66557">
        <ele>770.1533203</ele>
        <time>2014-03-08T07:47:09Z</time>
      </trkpt>
      <trkpt lat="44.32669" lon="2.66572">
        <ele>772.0759277</ele>
        <time>2014-03-08T07:47:15Z</time>
      </trkpt>
      <trkpt lat="44.3266" lon="2.66593">
        <ele>775.4404297</ele>
        <time>2014-03-08T07:47:22Z</time>
      </trkpt>
      <trkpt lat="44.32653" lon="2.66614">
        <ele>778.3244629</ele>
        <time>2014-03-08T07:47:28Z</time>
      </trkpt>
      <trkpt lat="44.32645" lon="2.66637">
        <ele>780.7280273</ele>
        <time>2014-03-08T07:47:35Z</time>
      </trkpt>
      <trkpt lat="44.32642" lon="2.66655">
        <ele>780.7280273</ele>
        <time>2014-03-08T07:47:40Z</time>
      </trkpt>
      <trkpt lat="44.32642" lon="2.66674">
        <ele>780.7280273</ele>
        <time>2014-03-08T07:47:45Z</time>
      </trkpt>
      <trkpt lat="44.32637" lon="2.66698">
        <ele>781.2087402</ele>
        <time>2014-03-08T07:47:51Z</time>
      </trkpt>
      <trkpt lat="44.32633" lon="2.66714">
        <ele>781.2087402</ele>
        <time>2014-03-08T07:47:56Z</time>
      </trkpt>
      <trkpt lat="44.3263" lon="2.66739">
        <ele>781.2087402</ele>
        <time>2014-03-08T07:48:03Z</time>
      </trkpt>
      <trkpt lat="44.3263" lon="2.66746">
        <ele>781.2087402</ele>
        <time>2014-03-08T07:48:05Z</time>
      </trkpt>
      <trkpt lat="44.32627" lon="2.66767">
        <ele>782.1699219</ele>
        <time>2014-03-08T07:48:11Z</time>
      </trkpt>
      <trkpt lat="44.32627" lon="2.66779">
        <ele>783.6118164</ele>
        <time>2014-03-08T07:48:15Z</time>
      </trkpt>
      <trkpt lat="44.32632" lon="2.66797">
        <ele>784.5732422</ele>
        <time>2014-03-08T07:48:21Z</time>
      </trkpt>
      <trkpt lat="44.32638" lon="2.66816">
        <ele>786.0151367</ele>
        <time>2014-03-08T07:48:27Z</time>
      </trkpt>
      <trkpt lat="44.32647" lon="2.66828">
        <ele>786.4958496</ele>
        <time>2014-03-08T07:48:33Z</time>
      </trkpt>
      <trkpt lat="44.32655" lon="2.66835">
        <ele>787.4570313</ele>
        <time>2014-03-08T07:48:38Z</time>
      </trkpt>
      <trkpt lat="44.32659" lon="2.66838">
        <ele>788.418457</ele>
        <time>2014-03-08T07:48:44Z</time>
      </trkpt>
      <trkpt lat="44.32667" lon="2.6684">
        <ele>788.8991699</ele>
        <time>2014-03-08T07:48:50Z</time>
      </trkpt>
      <trkpt lat="44.32683" lon="2.6684">
        <ele>787.9377441</ele>
        <time>2014-03-08T07:48:56Z</time>
      </trkpt>
      <trkpt lat="44.32697" lon="2.66841">
        <ele>787.9377441</ele>
        <time>2014-03-08T07:49:01Z</time>
      </trkpt>
      <trkpt lat="44.32712" lon="2.66842">
        <ele>787.4570313</ele>
        <time>2014-03-08T07:49:07Z</time>
      </trkpt>
      <trkpt lat="44.32726" lon="2.66845">
        <ele>787.4570313</ele>
        <time>2014-03-08T07:49:12Z</time>
      </trkpt>
      <trkpt lat="44.32747" lon="2.66845">
        <ele>788.418457</ele>
        <time>2014-03-08T07:49:19Z</time>
      </trkpt>
      <trkpt lat="44.32766" lon="2.66844">
        <ele>790.3410645</ele>
        <time>2014-03-08T07:49:25Z</time>
      </trkpt>
      <trkpt lat="44.32785" lon="2.6684">
        <ele>790.8215332</ele>
        <time>2014-03-08T07:49:31Z</time>
      </trkpt>
      <trkpt lat="44.32802" lon="2.66837">
        <ele>789.8603516</ele>
        <time>2014-03-08T07:49:37Z</time>
      </trkpt>
      <trkpt lat="44.32821" lon="2.66836">
        <ele>789.8603516</ele>
        <time>2014-03-08T07:49:44Z</time>
      </trkpt>
      <trkpt lat="44.32836" lon="2.66838">
        <ele>789.3796387</ele>
        <time>2014-03-08T07:49:50Z</time>
      </trkpt>
      <trkpt lat="44.32841" lon="2.6684">
        <ele>789.3796387</ele>
        <time>2014-03-08T07:49:52Z</time>
      </trkpt>
      <trkpt lat="44.32843" lon="2.66853">
        <ele>789.3796387</ele>
        <time>2014-03-08T07:49:56Z</time>
      </trkpt>
      <trkpt lat="44.32841" lon="2.66874">
        <ele>787.9377441</ele>
        <time>2014-03-08T07:50:02Z</time>
      </trkpt>
      <trkpt lat="44.32838" lon="2.66891">
        <ele>786.9763184</ele>
        <time>2014-03-08T07:50:06Z</time>
      </trkpt>
      <trkpt lat="44.32832" lon="2.66905">
        <ele>786.0151367</ele>
        <time>2014-03-08T07:50:10Z</time>
      </trkpt>
      <trkpt lat="44.32822" lon="2.66921">
        <ele>785.0539551</ele>
        <time>2014-03-08T07:50:15Z</time>
      </trkpt>
      <trkpt lat="44.32811" lon="2.66939">
        <ele>782.1699219</ele>
        <time>2014-03-08T07:50:20Z</time>
      </trkpt>
      <trkpt lat="44.32799" lon="2.66953">
        <ele>780.2473145</ele>
        <time>2014-03-08T07:50:25Z</time>
      </trkpt>
      <trkpt lat="44.32798" lon="2.66957">
        <ele>777.84375</ele>
        <time>2014-03-08T07:50:27Z</time>
      </trkpt>
      <trkpt lat="44.32803" lon="2.66964">
        <ele>773.0373535</ele>
        <time>2014-03-08T07:50:31Z</time>
      </trkpt>
      <trkpt lat="44.32819" lon="2.66962">
        <ele>768.7114258</ele>
        <time>2014-03-08T07:50:37Z</time>
      </trkpt>
      <trkpt lat="44.32829" lon="2.66962">
        <ele>765.8276367</ele>
        <time>2014-03-08T07:50:41Z</time>
      </trkpt>
      <trkpt lat="44.32844" lon="2.66965">
        <ele>763.4240723</ele>
        <time>2014-03-08T07:50:46Z</time>
      </trkpt>
      <trkpt lat="44.32845" lon="2.66967">
        <ele>761.9821777</ele>
        <time>2014-03-08T07:50:47Z</time>
      </trkpt>
      <trkpt lat="44.32842" lon="2.66989">
        <ele>756.6948242</ele>
        <time>2014-03-08T07:50:53Z</time>
      </trkpt>
      <trkpt lat="44.32832" lon="2.67">
        <ele>753.8110352</ele>
        <time>2014-03-08T07:50:57Z</time>
      </trkpt>
      <trkpt lat="44.32823" lon="2.67019">
        <ele>747.081543</ele>
        <time>2014-03-08T07:51:03Z</time>
      </trkpt>
      <trkpt lat="44.32823" lon="2.6702">
        <ele>745.1589355</ele>
        <time>2014-03-08T07:51:04Z</time>
      </trkpt>
      <trkpt lat="44.32835" lon="2.67021">
        <ele>742.2751465</ele>
        <time>2014-03-08T07:51:09Z</time>
      </trkpt>
      <trkpt lat="44.32845" lon="2.67017">
        <ele>741.7944336</ele>
        <time>2014-03-08T07:51:13Z</time>
      </trkpt>
      <trkpt lat="44.32848" lon="2.67016">
        <ele>740.8330078</ele>
        <time>2014-03-08T07:51:14Z</time>
      </trkpt>
      <trkpt lat="44.32857" lon="2.67024">
        <ele>735.0654297</ele>
        <time>2014-03-08T07:51:19Z</time>
      </trkpt>
      <trkpt lat="44.32856" lon="2.67031">
        <ele>733.623291</ele>
        <time>2014-03-08T07:51:21Z</time>
      </trkpt>
      <trkpt lat="44.32853" lon="2.67037">
        <ele>732.1813965</ele>
        <time>2014-03-08T07:51:23Z</time>
      </trkpt>
      <trkpt lat="44.32846" lon="2.67054">
        <ele>730.2585449</ele>
        <time>2014-03-08T07:51:28Z</time>
      </trkpt>
      <trkpt lat="44.32855" lon="2.67052">
        <ele>730.7392578</ele>
        <time>2014-03-08T07:51:34Z</time>
      </trkpt>
      <trkpt lat="44.32865" lon="2.6705">
        <ele>729.777832</ele>
        <time>2014-03-08T07:51:38Z</time>
      </trkpt>
      <trkpt lat="44.32871" lon="2.6706">
        <ele>724.0100098</ele>
        <time>2014-03-08T07:51:43Z</time>
      </trkpt>
      <trkpt lat="44.3287" lon="2.67086">
        <ele>715.8388672</ele>
        <time>2014-03-08T07:51:49Z</time>
      </trkpt>
      <trkpt lat="44.32867" lon="2.67109">
        <ele>710.0708008</ele>
        <time>2014-03-08T07:51:55Z</time>
      </trkpt>
      <trkpt lat="44.32871" lon="2.67123">
        <ele>707.6677246</ele>
        <time>2014-03-08T07:52:00Z</time>
      </trkpt>
      <trkpt lat="44.32877" lon="2.67117">
        <ele>705.7451172</ele>
        <time>2014-03-08T07:52:05Z</time>
      </trkpt>
      <trkpt lat="44.32888" lon="2.67102">
        <ele>702.861084</ele>
        <time>2014-03-08T07:52:10Z</time>
      </trkpt>
      <trkpt lat="44.32889" lon="2.67097">
        <ele>702.3803711</ele>
        <time>2014-03-08T07:52:11Z</time>
      </trkpt>
      <trkpt lat="44.32895" lon="2.67091">
        <ele>699.4963379</ele>
        <time>2014-03-08T07:52:16Z</time>
      </trkpt>
      <trkpt lat="44.32905" lon="2.67094">
        <ele>695.651123</ele>
        <time>2014-03-08T07:52:20Z</time>
      </trkpt>
      <trkpt lat="44.32908" lon="2.67096">
        <ele>697.5737305</ele>
        <time>2014-03-08T07:52:23Z</time>
      </trkpt>
      <trkpt lat="44.32916" lon="2.67098">
        <ele>699.015625</ele>
        <time>2014-03-08T07:52:29Z</time>
      </trkpt>
      <trkpt lat="44.32918" lon="2.67097">
        <ele>699.015625</ele>
        <time>2014-03-08T07:52:30Z</time>
      </trkpt>
      <trkpt lat="44.32924" lon="2.67095">
        <ele>698.5349121</ele>
        <time>2014-03-08T07:52:34Z</time>
      </trkpt>
      <trkpt lat="44.32941" lon="2.67092">
        <ele>704.7836914</ele>
        <time>2014-03-08T07:52:39Z</time>
      </trkpt>
      <trkpt lat="44.3296" lon="2.67097">
        <ele>701.4191895</ele>
        <time>2014-03-08T07:52:44Z</time>
      </trkpt>
      <trkpt lat="44.3297" lon="2.67095">
        <ele>699.4963379</ele>
        <time>2014-03-08T07:52:47Z</time>
      </trkpt>
      <trkpt lat="44.32988" lon="2.67092">
        <ele>699.015625</ele>
        <time>2014-03-08T07:52:53Z</time>
      </trkpt>
      <trkpt lat="44.33004" lon="2.67088">
        <ele>698.0544434</ele>
        <time>2014-03-08T07:52:58Z</time>
      </trkpt>
      <trkpt lat="44.33017" lon="2.67087">
        <ele>699.9770508</ele>
        <time>2014-03-08T07:53:02Z</time>
      </trkpt>
      <trkpt lat="44.3303" lon="2.67077">
        <ele>698.0544434</ele>
        <time>2014-03-08T07:53:07Z</time>
      </trkpt>
      <trkpt lat="44.33047" lon="2.67067">
        <ele>696.6125488</ele>
        <time>2014-03-08T07:53:13Z</time>
      </trkpt>
      <trkpt lat="44.33059" lon="2.67065">
        <ele>696.6125488</ele>
        <time>2014-03-08T07:53:17Z</time>
      </trkpt>
      <trkpt lat="44.33071" lon="2.67059">
        <ele>697.0930176</ele>
        <time>2014-03-08T07:53:21Z</time>
      </trkpt>
      <trkpt lat="44.33084" lon="2.67056">
        <ele>696.6125488</ele>
        <time>2014-03-08T07:53:25Z</time>
      </trkpt>
      <trkpt lat="44.33087" lon="2.67054">
        <ele>695.1704102</ele>
        <time>2014-03-08T07:53:26Z</time>
      </trkpt>
      <trkpt lat="44.33097" lon="2.67043">
        <ele>692.767334</ele>
        <time>2014-03-08T07:53:30Z</time>
      </trkpt>
      <trkpt lat="44.33111" lon="2.67027">
        <ele>690.3640137</ele>
        <time>2014-03-08T07:53:36Z</time>
      </trkpt>
      <trkpt lat="44.33124" lon="2.67029">
        <ele>689.4025879</ele>
        <time>2014-03-08T07:53:41Z</time>
      </trkpt>
      <trkpt lat="44.33137" lon="2.67032">
        <ele>687.9606934</ele>
        <time>2014-03-08T07:53:45Z</time>
      </trkpt>
      <trkpt lat="44.33152" lon="2.67048">
        <ele>686.9992676</ele>
        <time>2014-03-08T07:53:51Z</time>
      </trkpt>
      <trkpt lat="44.3316" lon="2.67055">
        <ele>686.0380859</ele>
        <time>2014-03-08T07:53:55Z</time>
      </trkpt>
      <trkpt lat="44.33177" lon="2.67051">
        <ele>684.5961914</ele>
        <time>2014-03-08T07:54:00Z</time>
      </trkpt>
      <trkpt lat="44.33195" lon="2.67043">
        <ele>683.6345215</ele>
        <time>2014-03-08T07:54:06Z</time>
      </trkpt>
      <trkpt lat="44.33213" lon="2.67036">
        <ele>685.557373</ele>
        <time>2014-03-08T07:54:12Z</time>
      </trkpt>
      <trkpt lat="44.33231" lon="2.67029">
        <ele>687.4799805</ele>
        <time>2014-03-08T07:54:18Z</time>
      </trkpt>
      <trkpt lat="44.33247" lon="2.67024">
        <ele>686.5187988</ele>
        <time>2014-03-08T07:54:23Z</time>
      </trkpt>
      <trkpt lat="44.33258" lon="2.67022">
        <ele>684.5961914</ele>
        <time>2014-03-08T07:54:27Z</time>
      </trkpt>
      <trkpt lat="44.33275" lon="2.67017">
        <ele>683.1538086</ele>
        <time>2014-03-08T07:54:33Z</time>
      </trkpt>
      <trkpt lat="44.33294" lon="2.67004">
        <ele>679.7893066</ele>
        <time>2014-03-08T07:54:39Z</time>
      </trkpt>
      <trkpt lat="44.33306" lon="2.66993">
        <ele>677.3862305</ele>
        <time>2014-03-08T07:54:43Z</time>
      </trkpt>
      <trkpt lat="44.3332" lon="2.66976">
        <ele>673.5410156</ele>
        <time>2014-03-08T07:54:49Z</time>
      </trkpt>
      <trkpt lat="44.33322" lon="2.66973">
        <ele>673.0603027</ele>
        <time>2014-03-08T07:54:50Z</time>
      </trkpt>
      <trkpt lat="44.33326" lon="2.66958">
        <ele>670.6569824</ele>
        <time>2014-03-08T07:54:54Z</time>
      </trkpt>
      <trkpt lat="44.33327" lon="2.66932">
        <ele>673.0603027</ele>
        <time>2014-03-08T07:55:00Z</time>
      </trkpt>
      <trkpt lat="44.33326" lon="2.66923">
        <ele>675.4633789</ele>
        <time>2014-03-08T07:55:03Z</time>
      </trkpt>
      <trkpt lat="44.33327" lon="2.66922">
        <ele>677.3862305</ele>
        <time>2014-03-08T07:55:06Z</time>
      </trkpt>
      <trkpt lat="44.33332" lon="2.66935">
        <ele>675.4633789</ele>
        <time>2014-03-08T07:55:11Z</time>
      </trkpt>
      <trkpt lat="44.33338" lon="2.66948">
        <ele>673.0603027</ele>
        <time>2014-03-08T07:55:15Z</time>
      </trkpt>
      <trkpt lat="44.33344" lon="2.66959">
        <ele>668.734375</ele>
        <time>2014-03-08T07:55:19Z</time>
      </trkpt>
      <trkpt lat="44.33346" lon="2.66974">
        <ele>662.9663086</ele>
        <time>2014-03-08T07:55:24Z</time>
      </trkpt>
      <trkpt lat="44.33349" lon="2.66982">
        <ele>657.1984863</ele>
        <time>2014-03-08T07:55:28Z</time>
      </trkpt>
      <trkpt lat="44.33349" lon="2.66999">
        <ele>651.4304199</ele>
        <time>2014-03-08T07:55:35Z</time>
      </trkpt>
      <trkpt lat="44.33351" lon="2.67013">
        <ele>647.1044922</ele>
        <time>2014-03-08T07:55:40Z</time>
      </trkpt>
      <trkpt lat="44.33352" lon="2.67021">
        <ele>644.2207031</ele>
        <time>2014-03-08T07:55:43Z</time>
      </trkpt>
      <trkpt lat="44.33351" lon="2.67043">
        <ele>639.4140625</ele>
        <time>2014-03-08T07:55:49Z</time>
      </trkpt>
      <trkpt lat="44.33352" lon="2.67047">
        <ele>637.972168</ele>
        <time>2014-03-08T07:55:50Z</time>
      </trkpt>
      <trkpt lat="44.33347" lon="2.67069">
        <ele>632.6848145</ele>
        <time>2014-03-08T07:55:55Z</time>
      </trkpt>
      <trkpt lat="44.33346" lon="2.67073">
        <ele>631.7233887</ele>
        <time>2014-03-08T07:55:57Z</time>
      </trkpt>
      <trkpt lat="44.33334" lon="2.67083">
        <ele>627.8781738</ele>
        <time>2014-03-08T07:56:03Z</time>
      </trkpt>
      <trkpt lat="44.33332" lon="2.67084">
        <ele>626.9169922</ele>
        <time>2014-03-08T07:56:04Z</time>
      </trkpt>
      <trkpt lat="44.33328" lon="2.6709">
        <ele>629.8007813</ele>
        <time>2014-03-08T07:56:09Z</time>
      </trkpt>
      <trkpt lat="44.33332" lon="2.67097">
        <ele>633.1652832</ele>
        <time>2014-03-08T07:56:14Z</time>
      </trkpt>
      <trkpt lat="44.33334" lon="2.67099">
        <ele>634.126709</ele>
        <time>2014-03-08T07:56:15Z</time>
      </trkpt>
      <trkpt lat="44.33348" lon="2.67101">
        <ele>638.9335938</ele>
        <time>2014-03-08T07:56:21Z</time>
      </trkpt>
      <trkpt lat="44.33361" lon="2.67097">
        <ele>645.6625977</ele>
        <time>2014-03-08T07:56:27Z</time>
      </trkpt>
      <trkpt lat="44.3337" lon="2.67101">
        <ele>649.5078125</ele>
        <time>2014-03-08T07:56:31Z</time>
      </trkpt>
      <trkpt lat="44.33375" lon="2.67106">
        <ele>650.4692383</ele>
        <time>2014-03-08T07:56:34Z</time>
      </trkpt>
      <trkpt lat="44.33387" lon="2.67121">
        <ele>653.8339844</ele>
        <time>2014-03-08T07:56:40Z</time>
      </trkpt>
      <trkpt lat="44.3339" lon="2.67123">
        <ele>653.8339844</ele>
        <time>2014-03-08T07:56:41Z</time>
      </trkpt>
      <trkpt lat="44.33396" lon="2.67131">
        <ele>650.4692383</ele>
        <time>2014-03-08T07:56:44Z</time>
      </trkpt>
      <trkpt lat="44.33406" lon="2.67134">
        <ele>650.4692383</ele>
        <time>2014-03-08T07:56:50Z</time>
      </trkpt>
      <trkpt lat="44.3341" lon="2.67139">
        <ele>647.5852051</ele>
        <time>2014-03-08T07:56:53Z</time>
      </trkpt>
      <trkpt lat="44.33418" lon="2.67148">
        <ele>644.2207031</ele>
        <time>2014-03-08T07:57:00Z</time>
      </trkpt>
      <trkpt lat="44.3342" lon="2.67151">
        <ele>644.7011719</ele>
        <time>2014-03-08T07:57:03Z</time>
      </trkpt>
      <trkpt lat="44.33423" lon="2.67155">
        <ele>646.1433105</ele>
        <time>2014-03-08T07:57:07Z</time>
      </trkpt>
      <trkpt lat="44.33428" lon="2.67159">
        <ele>648.065918</ele>
        <time>2014-03-08T07:57:13Z</time>
      </trkpt>
      <trkpt lat="44.33437" lon="2.67167">
        <ele>653.3532715</ele>
        <time>2014-03-08T07:57:21Z</time>
      </trkpt>
      <trkpt lat="44.33442" lon="2.67173">
        <ele>655.7565918</ele>
        <time>2014-03-08T07:57:25Z</time>
      </trkpt>
      <trkpt lat="44.33444" lon="2.67194">
        <ele>656.2370605</ele>
        <time>2014-03-08T07:57:32Z</time>
      </trkpt>
      <trkpt lat="44.33451" lon="2.67219">
        <ele>655.2758789</ele>
        <time>2014-03-08T07:57:40Z</time>
      </trkpt>
      <trkpt lat="44.33452" lon="2.67233">
        <ele>653.3532715</ele>
        <time>2014-03-08T07:57:45Z</time>
      </trkpt>
      <trkpt lat="44.33453" lon="2.67253">
        <ele>654.795166</ele>
        <time>2014-03-08T07:57:51Z</time>
      </trkpt>
      <trkpt lat="44.33455" lon="2.67271">
        <ele>656.2370605</ele>
        <time>2014-03-08T07:57:57Z</time>
      </trkpt>
      <trkpt lat="44.33457" lon="2.67273">
        <ele>656.7177734</ele>
        <time>2014-03-08T07:57:58Z</time>
      </trkpt>
      <trkpt lat="44.33462" lon="2.67272">
        <ele>660.0822754</ele>
        <time>2014-03-08T07:58:02Z</time>
      </trkpt>
      <trkpt lat="44.33464" lon="2.67252">
        <ele>656.2370605</ele>
        <time>2014-03-08T07:58:09Z</time>
      </trkpt>
      <trkpt lat="44.33465" lon="2.67234">
        <ele>657.1984863</ele>
        <time>2014-03-08T07:58:15Z</time>
      </trkpt>
      <trkpt lat="44.33466" lon="2.6721">
        <ele>658.1599121</ele>
        <time>2014-03-08T07:58:22Z</time>
      </trkpt>
      <trkpt lat="44.33466" lon="2.67194">
        <ele>658.6403809</ele>
        <time>2014-03-08T07:58:27Z</time>
      </trkpt>
      <trkpt lat="44.33466" lon="2.67175">
        <ele>659.6018066</ele>
        <time>2014-03-08T07:58:33Z</time>
      </trkpt>
      <trkpt lat="44.33463" lon="2.67157">
        <ele>661.0437012</ele>
        <time>2014-03-08T07:58:38Z</time>
      </trkpt>
      <trkpt lat="44.3346" lon="2.67141">
        <ele>661.5244141</ele>
        <time>2014-03-08T07:58:43Z</time>
      </trkpt>
      <trkpt lat="44.33458" lon="2.67126">
        <ele>661.0437012</ele>
        <time>2014-03-08T07:58:48Z</time>
      </trkpt>
      <trkpt lat="44.33458" lon="2.67105">
        <ele>662.4855957</ele>
        <time>2014-03-08T07:58:55Z</time>
      </trkpt>
      <trkpt lat="44.33463" lon="2.67094">
        <ele>662.9663086</ele>
        <time>2014-03-08T07:59:00Z</time>
      </trkpt>
      <trkpt lat="44.33471" lon="2.67084">
        <ele>664.4082031</ele>
        <time>2014-03-08T07:59:05Z</time>
      </trkpt>
      <trkpt lat="44.33482" lon="2.67077">
        <ele>665.8503418</ele>
        <time>2014-03-08T07:59:11Z</time>
      </trkpt>
      <trkpt lat="44.33491" lon="2.67075">
        <ele>667.2922363</ele>
        <time>2014-03-08T07:59:16Z</time>
      </trkpt>
      <trkpt lat="44.33498" lon="2.67081">
        <ele>669.2150879</ele>
        <time>2014-03-08T07:59:21Z</time>
      </trkpt>
      <trkpt lat="44.33504" lon="2.67089">
        <ele>670.1762695</ele>
        <time>2014-03-08T07:59:26Z</time>
      </trkpt>
      <trkpt lat="44.33515" lon="2.67095">
        <ele>672.098877</ele>
        <time>2014-03-08T07:59:31Z</time>
      </trkpt>
      <trkpt lat="44.33524" lon="2.671">
        <ele>673.5410156</ele>
        <time>2014-03-08T07:59:35Z</time>
      </trkpt>
      <trkpt lat="44.33526" lon="2.671">
        <ele>674.0214844</ele>
        <time>2014-03-08T07:59:36Z</time>
      </trkpt>
      <trkpt lat="44.33543" lon="2.67099">
        <ele>675.9440918</ele>
        <time>2014-03-08T07:59:42Z</time>
      </trkpt>
      <trkpt lat="44.33559" lon="2.67098">
        <ele>677.8666992</ele>
        <time>2014-03-08T07:59:47Z</time>
      </trkpt>
      <trkpt lat="44.33575" lon="2.67098">
        <ele>681.2314453</ele>
        <time>2014-03-08T07:59:53Z</time>
      </trkpt>
      <trkpt lat="44.33586" lon="2.67102">
        <ele>686.5187988</ele>
        <time>2014-03-08T07:59:57Z</time>
      </trkpt>
      <trkpt lat="44.33591" lon="2.67104">
        <ele>685.557373</ele>
        <time>2014-03-08T08:00:03Z</time>
      </trkpt>
      <trkpt lat="44.336" lon="2.67109">
        <ele>686.9992676</ele>
        <time>2014-03-08T08:00:08Z</time>
      </trkpt>
      <trkpt lat="44.33605" lon="2.67111">
        <ele>688.4414063</ele>
        <time>2014-03-08T08:00:10Z</time>
      </trkpt>
      <trkpt lat="44.33614" lon="2.67114">
        <ele>689.8833008</ele>
        <time>2014-03-08T08:00:15Z</time>
      </trkpt>
      <trkpt lat="44.3362" lon="2.67118">
        <ele>691.8059082</ele>
        <time>2014-03-08T08:00:19Z</time>
      </trkpt>
      <trkpt lat="44.33627" lon="2.67121">
        <ele>695.1704102</ele>
        <time>2014-03-08T08:00:23Z</time>
      </trkpt>
      <trkpt lat="44.33639" lon="2.67126">
        <ele>703.3417969</ele>
        <time>2014-03-08T08:00:30Z</time>
      </trkpt>
      <trkpt lat="44.33644" lon="2.67126">
        <ele>706.2255859</ele>
        <time>2014-03-08T08:00:33Z</time>
      </trkpt>
      <trkpt lat="44.33649" lon="2.67123">
        <ele>705.7451172</ele>
        <time>2014-03-08T08:00:37Z</time>
      </trkpt>
      <trkpt lat="44.33654" lon="2.67119">
        <ele>699.4963379</ele>
        <time>2014-03-08T08:00:43Z</time>
      </trkpt>
      <trkpt lat="44.33657" lon="2.67114">
        <ele>690.8444824</ele>
        <time>2014-03-08T08:00:50Z</time>
      </trkpt>
      <trkpt lat="44.33658" lon="2.67109">
        <ele>687.9606934</ele>
        <time>2014-03-08T08:00:56Z</time>
      </trkpt>
      <trkpt lat="44.33662" lon="2.67106">
        <ele>691.3251953</ele>
        <time>2014-03-08T08:01:01Z</time>
      </trkpt>
      <trkpt lat="44.33664" lon="2.67103">
        <ele>693.2478027</ele>
        <time>2014-03-08T08:01:06Z</time>
      </trkpt>
      <trkpt lat="44.33666" lon="2.67099">
        <ele>693.2478027</ele>
        <time>2014-03-08T08:01:12Z</time>
      </trkpt>
      <trkpt lat="44.3367" lon="2.671">
        <ele>691.3251953</ele>
        <time>2014-03-08T08:01:18Z</time>
      </trkpt>
      <trkpt lat="44.33676" lon="2.67101">
        <ele>693.2478027</ele>
        <time>2014-03-08T08:01:26Z</time>
      </trkpt>
      <trkpt lat="44.33679" lon="2.67101">
        <ele>692.767334</ele>
        <time>2014-03-08T08:01:31Z</time>
      </trkpt>
      <trkpt lat="44.33685" lon="2.67101">
        <ele>696.6125488</ele>
        <time>2014-03-08T08:01:39Z</time>
      </trkpt>
      <trkpt lat="44.33689" lon="2.67097">
        <ele>698.5349121</ele>
        <time>2014-03-08T08:01:45Z</time>
      </trkpt>
      <trkpt lat="44.33694" lon="2.67092">
        <ele>702.3803711</ele>
        <time>2014-03-08T08:01:52Z</time>
      </trkpt>
      <trkpt lat="44.33699" lon="2.67089">
        <ele>707.6677246</ele>
        <time>2014-03-08T08:01:59Z</time>
      </trkpt>
      <trkpt lat="44.33703" lon="2.67086">
        <ele>709.590332</ele>
        <time>2014-03-08T08:02:06Z</time>
      </trkpt>
      <trkpt lat="44.33707" lon="2.67085">
        <ele>710.0708008</ele>
        <time>2014-03-08T08:02:13Z</time>
      </trkpt>
      <trkpt lat="44.33711" lon="2.67083">
        <ele>710.0708008</ele>
        <time>2014-03-08T08:02:20Z</time>
      </trkpt>
      <trkpt lat="44.33714" lon="2.67084">
        <ele>706.7062988</ele>
        <time>2014-03-08T08:02:25Z</time>
      </trkpt>
      <trkpt lat="44.33718" lon="2.67082">
        <ele>710.5515137</ele>
        <time>2014-03-08T08:02:31Z</time>
      </trkpt>
      <trkpt lat="44.33719" lon="2.67073">
        <ele>711.9936523</ele>
        <time>2014-03-08T08:02:37Z</time>
      </trkpt>
      <trkpt lat="44.33712" lon="2.67057">
        <ele>713.9160156</ele>
        <time>2014-03-08T08:02:43Z</time>
      </trkpt>
      <trkpt lat="44.33708" lon="2.67042">
        <ele>713.9160156</ele>
        <time>2014-03-08T08:02:48Z</time>
      </trkpt>
      <trkpt lat="44.33706" lon="2.67026">
        <ele>712.954834</ele>
        <time>2014-03-08T08:02:53Z</time>
      </trkpt>
      <trkpt lat="44.33704" lon="2.67004">
        <ele>712.4741211</ele>
        <time>2014-03-08T08:02:59Z</time>
      </trkpt>
      <trkpt lat="44.33707" lon="2.66988">
        <ele>711.9936523</ele>
        <time>2014-03-08T08:03:04Z</time>
      </trkpt>
      <trkpt lat="44.33712" lon="2.66973">
        <ele>711.9936523</ele>
        <time>2014-03-08T08:03:10Z</time>
      </trkpt>
      <trkpt lat="44.33712" lon="2.66955">
        <ele>711.5129395</ele>
        <time>2014-03-08T08:03:15Z</time>
      </trkpt>
      <trkpt lat="44.33719" lon="2.66937">
        <ele>710.0708008</ele>
        <time>2014-03-08T08:03:21Z</time>
      </trkpt>
      <trkpt lat="44.33727" lon="2.66917">
        <ele>710.5515137</ele>
        <time>2014-03-08T08:03:27Z</time>
      </trkpt>
      <trkpt lat="44.33733" lon="2.66903">
        <ele>710.0708008</ele>
        <time>2014-03-08T08:03:31Z</time>
      </trkpt>
      <trkpt lat="44.33741" lon="2.6689">
        <ele>710.5515137</ele>
        <time>2014-03-08T08:03:36Z</time>
      </trkpt>
      <trkpt lat="44.33748" lon="2.66884">
        <ele>712.4741211</ele>
        <time>2014-03-08T08:03:40Z</time>
      </trkpt>
      <trkpt lat="44.33749" lon="2.66883">
        <ele>712.954834</ele>
        <time>2014-03-08T08:03:41Z</time>
      </trkpt>
      <trkpt lat="44.33755" lon="2.66888">
        <ele>715.3581543</ele>
        <time>2014-03-08T08:03:49Z</time>
      </trkpt>
      <trkpt lat="44.33758" lon="2.66896">
        <ele>717.2810059</ele>
        <time>2014-03-08T08:03:56Z</time>
      </trkpt>
      <trkpt lat="44.33761" lon="2.66904">
        <ele>718.7229004</ele>
        <time>2014-03-08T08:04:03Z</time>
      </trkpt>
      <trkpt lat="44.33764" lon="2.66912">
        <ele>720.6455078</ele>
        <time>2014-03-08T08:04:09Z</time>
      </trkpt>
      <trkpt lat="44.33769" lon="2.66918">
        <ele>723.0488281</ele>
        <time>2014-03-08T08:04:16Z</time>
      </trkpt>
      <trkpt lat="44.3377" lon="2.6692">
        <ele>723.529541</ele>
        <time>2014-03-08T08:04:18Z</time>
      </trkpt>
      <trkpt lat="44.33774" lon="2.66925">
        <ele>724.9714355</ele>
        <time>2014-03-08T08:04:25Z</time>
      </trkpt>
      <trkpt lat="44.33778" lon="2.66929">
        <ele>725.9326172</ele>
        <time>2014-03-08T08:04:31Z</time>
      </trkpt>
      <trkpt lat="44.33782" lon="2.66933">
        <ele>727.8552246</ele>
        <time>2014-03-08T08:04:35Z</time>
      </trkpt>
      <trkpt lat="44.33785" lon="2.66937">
        <ele>729.777832</ele>
        <time>2014-03-08T08:04:40Z</time>
      </trkpt>
      <trkpt lat="44.3379" lon="2.66943">
        <ele>733.623291</ele>
        <time>2014-03-08T08:04:47Z</time>
      </trkpt>
      <trkpt lat="44.33794" lon="2.66947">
        <ele>735.0654297</ele>
        <time>2014-03-08T08:04:53Z</time>
      </trkpt>
      <trkpt lat="44.33797" lon="2.66955">
        <ele>736.5073242</ele>
        <time>2014-03-08T08:05:00Z</time>
      </trkpt>
      <trkpt lat="44.33802" lon="2.66961">
        <ele>737.9492188</ele>
        <time>2014-03-08T08:05:07Z</time>
      </trkpt>
      <trkpt lat="44.33806" lon="2.66966">
        <ele>739.3911133</ele>
        <time>2014-03-08T08:05:13Z</time>
      </trkpt>
      <trkpt lat="44.33811" lon="2.66973">
        <ele>740.8330078</ele>
        <time>2014-03-08T08:05:19Z</time>
      </trkpt>
      <trkpt lat="44.33813" lon="2.66975">
        <ele>741.7944336</ele>
        <time>2014-03-08T08:05:22Z</time>
      </trkpt>
      <trkpt lat="44.33819" lon="2.66973">
        <ele>742.7558594</ele>
        <time>2014-03-08T08:05:28Z</time>
      </trkpt>
      <trkpt lat="44.33821" lon="2.66968">
        <ele>743.2363281</ele>
        <time>2014-03-08T08:05:30Z</time>
      </trkpt>
      <trkpt lat="44.33831" lon="2.66952">
        <ele>742.2751465</ele>
        <time>2014-03-08T08:05:36Z</time>
      </trkpt>
      <trkpt lat="44.33839" lon="2.66947">
        <ele>742.7558594</ele>
        <time>2014-03-08T08:05:40Z</time>
      </trkpt>
      <trkpt lat="44.33851" lon="2.66942">
        <ele>742.2751465</ele>
        <time>2014-03-08T08:05:45Z</time>
      </trkpt>
      <trkpt lat="44.33859" lon="2.6694">
        <ele>742.7558594</ele>
        <time>2014-03-08T08:05:48Z</time>
      </trkpt>
      <trkpt lat="44.33871" lon="2.66937">
        <ele>744.1977539</ele>
        <time>2014-03-08T08:05:53Z</time>
      </trkpt>
      <trkpt lat="44.33886" lon="2.66943">
        <ele>745.6396484</ele>
        <time>2014-03-08T08:06:00Z</time>
      </trkpt>
      <trkpt lat="44.33898" lon="2.66955">
        <ele>745.1589355</ele>
        <time>2014-03-08T08:06:06Z</time>
      </trkpt>
      <trkpt lat="44.33905" lon="2.6697">
        <ele>743.717041</ele>
        <time>2014-03-08T08:06:11Z</time>
      </trkpt>
      <trkpt lat="44.33903" lon="2.66985">
        <ele>742.7558594</ele>
        <time>2014-03-08T08:06:15Z</time>
      </trkpt>
      <trkpt lat="44.33898" lon="2.67004">
        <ele>742.7558594</ele>
        <time>2014-03-08T08:06:21Z</time>
      </trkpt>
      <trkpt lat="44.33897" lon="2.67024">
        <ele>743.717041</ele>
        <time>2014-03-08T08:06:27Z</time>
      </trkpt>
      <trkpt lat="44.33895" lon="2.67041">
        <ele>744.6782227</ele>
        <time>2014-03-08T08:06:32Z</time>
      </trkpt>
      <trkpt lat="44.33895" lon="2.67054">
        <ele>746.1203613</ele>
        <time>2014-03-08T08:06:36Z</time>
      </trkpt>
      <trkpt lat="44.33904" lon="2.67066">
        <ele>747.5622559</ele>
        <time>2014-03-08T08:06:42Z</time>
      </trkpt>
      <trkpt lat="44.33918" lon="2.6708">
        <ele>748.0432129</ele>
        <time>2014-03-08T08:06:49Z</time>
      </trkpt>
      <trkpt lat="44.33929" lon="2.67096">
        <ele>746.6010742</ele>
        <time>2014-03-08T08:06:57Z</time>
      </trkpt>
      <trkpt lat="44.33937" lon="2.67108">
        <ele>747.081543</ele>
        <time>2014-03-08T08:07:03Z</time>
      </trkpt>
      <trkpt lat="44.33944" lon="2.67119">
        <ele>748.0432129</ele>
        <time>2014-03-08T08:07:08Z</time>
      </trkpt>
      <trkpt lat="44.33952" lon="2.6713">
        <ele>748.5236816</ele>
        <time>2014-03-08T08:07:14Z</time>
      </trkpt>
      <trkpt lat="44.33959" lon="2.67138">
        <ele>749.9658203</ele>
        <time>2014-03-08T08:07:19Z</time>
      </trkpt>
      <trkpt lat="44.3397" lon="2.67152">
        <ele>751.8884277</ele>
        <time>2014-03-08T08:07:26Z</time>
      </trkpt>
      <trkpt lat="44.33975" lon="2.67159">
        <ele>753.3303223</ele>
        <time>2014-03-08T08:07:30Z</time>
      </trkpt>
      <trkpt lat="44.33981" lon="2.67167">
        <ele>754.7722168</ele>
        <time>2014-03-08T08:07:35Z</time>
      </trkpt>
      <trkpt lat="44.33993" lon="2.6718">
        <ele>758.1369629</ele>
        <time>2014-03-08T08:07:42Z</time>
      </trkpt>
      <trkpt lat="44.34" lon="2.6719">
        <ele>759.5788574</ele>
        <time>2014-03-08T08:07:47Z</time>
      </trkpt>
      <trkpt lat="44.34013" lon="2.67204">
        <ele>761.020752</ele>
        <time>2014-03-08T08:07:55Z</time>
      </trkpt>
      <trkpt lat="44.34019" lon="2.6721">
        <ele>764.385498</ele>
        <time>2014-03-08T08:08:00Z</time>
      </trkpt>
      <trkpt lat="44.34027" lon="2.67219">
        <ele>770.1533203</ele>
        <time>2014-03-08T08:08:07Z</time>
      </trkpt>
      <trkpt lat="44.34028" lon="2.6722">
        <ele>771.1147461</ele>
        <time>2014-03-08T08:08:08Z</time>
      </trkpt>
      <trkpt lat="44.34031" lon="2.67225">
        <ele>772.5566406</ele>
        <time>2014-03-08T08:08:12Z</time>
      </trkpt>
      <trkpt lat="44.34039" lon="2.67237">
        <ele>774.479248</ele>
        <time>2014-03-08T08:08:18Z</time>
      </trkpt>
      <trkpt lat="44.34047" lon="2.6725">
        <ele>772.5566406</ele>
        <time>2014-03-08T08:08:24Z</time>
      </trkpt>
      <trkpt lat="44.3405" lon="2.67255">
        <ele>772.5566406</ele>
        <time>2014-03-08T08:08:27Z</time>
      </trkpt>
      <trkpt lat="44.34057" lon="2.67266">
        <ele>773.9985352</ele>
        <time>2014-03-08T08:08:33Z</time>
      </trkpt>
      <trkpt lat="44.34062" lon="2.67264">
        <ele>774.479248</ele>
        <time>2014-03-08T08:08:35Z</time>
      </trkpt>
      <trkpt lat="44.34078" lon="2.6725">
        <ele>773.5180664</ele>
        <time>2014-03-08T08:08:42Z</time>
      </trkpt>
      <trkpt lat="44.34088" lon="2.67237">
        <ele>773.5180664</ele>
        <time>2014-03-08T08:08:47Z</time>
      </trkpt>
      <trkpt lat="44.34101" lon="2.67216">
        <ele>773.5180664</ele>
        <time>2014-03-08T08:08:54Z</time>
      </trkpt>
      <trkpt lat="44.3411" lon="2.67205">
        <ele>772.5566406</ele>
        <time>2014-03-08T08:08:58Z</time>
      </trkpt>
      <trkpt lat="44.3412" lon="2.67195">
        <ele>771.1147461</ele>
        <time>2014-03-08T08:09:02Z</time>
      </trkpt>
      <trkpt lat="44.3413" lon="2.67185">
        <ele>769.6728516</ele>
        <time>2014-03-08T08:09:07Z</time>
      </trkpt>
      <trkpt lat="44.34144" lon="2.67171">
        <ele>768.2307129</ele>
        <time>2014-03-08T08:09:13Z</time>
      </trkpt>
      <trkpt lat="44.34155" lon="2.67162">
        <ele>766.3081055</ele>
        <time>2014-03-08T08:09:17Z</time>
      </trkpt>
      <trkpt lat="44.34166" lon="2.67152">
        <ele>763.904541</ele>
        <time>2014-03-08T08:09:22Z</time>
      </trkpt>
      <trkpt lat="44.34173" lon="2.67144">
        <ele>763.4240723</ele>
        <time>2014-03-08T08:09:27Z</time>
      </trkpt>
      <trkpt lat="44.34173" lon="2.67143">
        <ele>763.904541</ele>
        <time>2014-03-08T08:09:33Z</time>
      </trkpt>
      <trkpt lat="44.34173" lon="2.67142">
        <ele>763.904541</ele>
        <time>2014-03-08T08:09:42Z</time>
      </trkpt>
      <trkpt lat="44.34175" lon="2.6714">
        <ele>764.8662109</ele>
        <time>2014-03-08T08:09:48Z</time>
      </trkpt>
      <trkpt lat="44.34184" lon="2.67133">
        <ele>765.3469238</ele>
        <time>2014-03-08T08:09:52Z</time>
      </trkpt>
      <trkpt lat="44.34197" lon="2.67126">
        <ele>765.8276367</ele>
        <time>2014-03-08T08:09:57Z</time>
      </trkpt>
      <trkpt lat="44.34208" lon="2.67118">
        <ele>764.385498</ele>
        <time>2014-03-08T08:10:01Z</time>
      </trkpt>
      <trkpt lat="44.34224" lon="2.6711">
        <ele>761.9821777</ele>
        <time>2014-03-08T08:10:07Z</time>
      </trkpt>
      <trkpt lat="44.34238" lon="2.67102">
        <ele>760.0593262</ele>
        <time>2014-03-08T08:10:12Z</time>
      </trkpt>
      <trkpt lat="44.34252" lon="2.67089">
        <ele>759.0981445</ele>
        <time>2014-03-08T08:10:18Z</time>
      </trkpt>
      <trkpt lat="44.34266" lon="2.67075">
        <ele>757.1755371</ele>
        <time>2014-03-08T08:10:24Z</time>
      </trkpt>
      <trkpt lat="44.34277" lon="2.67061">
        <ele>756.2141113</ele>
        <time>2014-03-08T08:10:29Z</time>
      </trkpt>
      <trkpt lat="44.34283" lon="2.67044">
        <ele>754.7722168</ele>
        <time>2014-03-08T08:10:33Z</time>
      </trkpt>
      <trkpt lat="44.3429" lon="2.67026">
        <ele>752.3688965</ele>
        <time>2014-03-08T08:10:38Z</time>
      </trkpt>
      <trkpt lat="44.34301" lon="2.66998">
        <ele>749.0043945</ele>
        <time>2014-03-08T08:10:45Z</time>
      </trkpt>
      <trkpt lat="44.34316" lon="2.66979">
        <ele>747.081543</ele>
        <time>2014-03-08T08:10:51Z</time>
      </trkpt>
      <trkpt lat="44.34328" lon="2.66967">
        <ele>743.717041</ele>
        <time>2014-03-08T08:10:55Z</time>
      </trkpt>
      <trkpt lat="44.34341" lon="2.6695">
        <ele>740.3525391</ele>
        <time>2014-03-08T08:11:00Z</time>
      </trkpt>
      <trkpt lat="44.34353" lon="2.66934">
        <ele>737.9492188</ele>
        <time>2014-03-08T08:11:05Z</time>
      </trkpt>
      <trkpt lat="44.34365" lon="2.66919">
        <ele>734.5847168</ele>
        <time>2014-03-08T08:11:10Z</time>
      </trkpt>
      <trkpt lat="44.34377" lon="2.66904">
        <ele>732.1813965</ele>
        <time>2014-03-08T08:11:15Z</time>
      </trkpt>
      <trkpt lat="44.34391" lon="2.66892">
        <ele>731.7004395</ele>
        <time>2014-03-08T08:11:20Z</time>
      </trkpt>
      <trkpt lat="44.34405" lon="2.66882">
        <ele>730.7392578</ele>
        <time>2014-03-08T08:11:25Z</time>
      </trkpt>
      <trkpt lat="44.34419" lon="2.66873">
        <ele>728.8166504</ele>
        <time>2014-03-08T08:11:30Z</time>
      </trkpt>
      <trkpt lat="44.34431" lon="2.66854">
        <ele>725.9326172</ele>
        <time>2014-03-08T08:11:35Z</time>
      </trkpt>
      <trkpt lat="44.34441" lon="2.66835">
        <ele>723.0488281</ele>
        <time>2014-03-08T08:11:40Z</time>
      </trkpt>
      <trkpt lat="44.34449" lon="2.66819">
        <ele>722.5681152</ele>
        <time>2014-03-08T08:11:44Z</time>
      </trkpt>
      <trkpt lat="44.34455" lon="2.668">
        <ele>718.2421875</ele>
        <time>2014-03-08T08:11:48Z</time>
      </trkpt>
      <trkpt lat="44.34463" lon="2.66786">
        <ele>714.8774414</ele>
        <time>2014-03-08T08:11:52Z</time>
      </trkpt>
      <trkpt lat="44.34473" lon="2.66776">
        <ele>711.0322266</ele>
        <time>2014-03-08T08:11:56Z</time>
      </trkpt>
      <trkpt lat="44.34487" lon="2.6676">
        <ele>706.7062988</ele>
        <time>2014-03-08T08:12:02Z</time>
      </trkpt>
      <trkpt lat="44.345" lon="2.66746">
        <ele>702.3803711</ele>
        <time>2014-03-08T08:12:07Z</time>
      </trkpt>
      <trkpt lat="44.34512" lon="2.66737">
        <ele>699.015625</ele>
        <time>2014-03-08T08:12:11Z</time>
      </trkpt>
      <trkpt lat="44.34526" lon="2.66724">
        <ele>695.651123</ele>
        <time>2014-03-08T08:12:16Z</time>
      </trkpt>
      <trkpt lat="44.34539" lon="2.66712">
        <ele>693.7285156</ele>
        <time>2014-03-08T08:12:21Z</time>
      </trkpt>
      <trkpt lat="44.34543" lon="2.66709">
        <ele>693.7285156</ele>
        <time>2014-03-08T08:12:23Z</time>
      </trkpt>
      <trkpt lat="44.34545" lon="2.66705">
        <ele>696.6125488</ele>
        <time>2014-03-08T08:12:28Z</time>
      </trkpt>
      <trkpt lat="44.34547" lon="2.66705">
        <ele>696.6125488</ele>
        <time>2014-03-08T08:12:29Z</time>
      </trkpt>
      <trkpt lat="44.34558" lon="2.66712">
        <ele>694.2092285</ele>
        <time>2014-03-08T08:12:34Z</time>
      </trkpt>
      <trkpt lat="44.34564" lon="2.66728">
        <ele>691.3251953</ele>
        <time>2014-03-08T08:12:39Z</time>
      </trkpt>
      <trkpt lat="44.34571" lon="2.66748">
        <ele>689.4025879</ele>
        <time>2014-03-08T08:12:44Z</time>
      </trkpt>
      <trkpt lat="44.34574" lon="2.66772">
        <ele>687.9606934</ele>
        <time>2014-03-08T08:12:49Z</time>
      </trkpt>
      <trkpt lat="44.34575" lon="2.66798">
        <ele>686.0380859</ele>
        <time>2014-03-08T08:12:54Z</time>
      </trkpt>
      <trkpt lat="44.34576" lon="2.6682">
        <ele>683.6345215</ele>
        <time>2014-03-08T08:12:59Z</time>
      </trkpt>
      <trkpt lat="44.34577" lon="2.66844">
        <ele>682.6733398</ele>
        <time>2014-03-08T08:13:04Z</time>
      </trkpt>
      <trkpt lat="44.34577" lon="2.66862">
        <ele>681.7119141</ele>
        <time>2014-03-08T08:13:08Z</time>
      </trkpt>
      <trkpt lat="44.34575" lon="2.66885">
        <ele>681.2314453</ele>
        <time>2014-03-08T08:13:13Z</time>
      </trkpt>
      <trkpt lat="44.34571" lon="2.66907">
        <ele>681.2314453</ele>
        <time>2014-03-08T08:13:18Z</time>
      </trkpt>
      <trkpt lat="44.34567" lon="2.66924">
        <ele>681.7119141</ele>
        <time>2014-03-08T08:13:22Z</time>
      </trkpt>
      <trkpt lat="44.34562" lon="2.66944">
        <ele>682.192627</ele>
        <time>2014-03-08T08:13:27Z</time>
      </trkpt>
      <trkpt lat="44.3456" lon="2.66969">
        <ele>682.6733398</ele>
        <time>2014-03-08T08:13:32Z</time>
      </trkpt>
      <trkpt lat="44.34559" lon="2.66989">
        <ele>683.6345215</ele>
        <time>2014-03-08T08:13:36Z</time>
      </trkpt>
      <trkpt lat="44.34557" lon="2.67018">
        <ele>683.6345215</ele>
        <time>2014-03-08T08:13:42Z</time>
      </trkpt>
      <trkpt lat="44.34555" lon="2.67049">
        <ele>681.7119141</ele>
        <time>2014-03-08T08:13:48Z</time>
      </trkpt>
      <trkpt lat="44.34555" lon="2.67077">
        <ele>677.8666992</ele>
        <time>2014-03-08T08:13:53Z</time>
      </trkpt>
      <trkpt lat="44.34558" lon="2.67095">
        <ele>674.5021973</ele>
        <time>2014-03-08T08:13:57Z</time>
      </trkpt>
      <trkpt lat="44.3456" lon="2.67097">
        <ele>674.0214844</ele>
        <time>2014-03-08T08:13:58Z</time>
      </trkpt>
      <trkpt lat="44.34578" lon="2.67094">
        <ele>669.6958008</ele>
        <time>2014-03-08T08:14:03Z</time>
      </trkpt>
      <trkpt lat="44.346" lon="2.67091">
        <ele>665.8503418</ele>
        <time>2014-03-08T08:14:09Z</time>
      </trkpt>
      <trkpt lat="44.34623" lon="2.67084">
        <ele>662.9663086</ele>
        <time>2014-03-08T08:14:15Z</time>
      </trkpt>
      <trkpt lat="44.34641" lon="2.67076">
        <ele>660.5629883</ele>
        <time>2014-03-08T08:14:20Z</time>
      </trkpt>
      <trkpt lat="44.34657" lon="2.67065">
        <ele>656.2370605</ele>
        <time>2014-03-08T08:14:25Z</time>
      </trkpt>
      <trkpt lat="44.34674" lon="2.67053">
        <ele>653.8339844</ele>
        <time>2014-03-08T08:14:30Z</time>
      </trkpt>
      <trkpt lat="44.34687" lon="2.67042">
        <ele>650.4692383</ele>
        <time>2014-03-08T08:14:35Z</time>
      </trkpt>
      <trkpt lat="44.34708" lon="2.67026">
        <ele>649.0270996</ele>
        <time>2014-03-08T08:14:42Z</time>
      </trkpt>
      <trkpt lat="44.34719" lon="2.67013">
        <ele>648.065918</ele>
        <time>2014-03-08T08:14:46Z</time>
      </trkpt>
      <trkpt lat="44.34729" lon="2.67004">
        <ele>645.6625977</ele>
        <time>2014-03-08T08:14:50Z</time>
      </trkpt>
      <trkpt lat="44.34743" lon="2.67007">
        <ele>645.1818848</ele>
        <time>2014-03-08T08:14:54Z</time>
      </trkpt>
      <trkpt lat="44.3476" lon="2.67014">
        <ele>643.7399902</ele>
        <time>2014-03-08T08:14:59Z</time>
      </trkpt>
      <trkpt lat="44.34772" lon="2.6702">
        <ele>643.7399902</ele>
        <time>2014-03-08T08:15:03Z</time>
      </trkpt>
      <trkpt lat="44.34783" lon="2.67028">
        <ele>642.2980957</ele>
        <time>2014-03-08T08:15:07Z</time>
      </trkpt>
      <trkpt lat="44.34795" lon="2.6704">
        <ele>638.9335938</ele>
        <time>2014-03-08T08:15:12Z</time>
      </trkpt>
      <trkpt lat="44.34808" lon="2.67048">
        <ele>636.5302734</ele>
        <time>2014-03-08T08:15:16Z</time>
      </trkpt>
      <trkpt lat="44.34819" lon="2.67056">
        <ele>634.126709</ele>
        <time>2014-03-08T08:15:20Z</time>
      </trkpt>
      <trkpt lat="44.34831" lon="2.67056">
        <ele>632.2041016</ele>
        <time>2014-03-08T08:15:24Z</time>
      </trkpt>
      <trkpt lat="44.3485" lon="2.67047">
        <ele>631.2429199</ele>
        <time>2014-03-08T08:15:30Z</time>
      </trkpt>
      <trkpt lat="44.34864" lon="2.67039">
        <ele>629.8007813</ele>
        <time>2014-03-08T08:15:34Z</time>
      </trkpt>
      <trkpt lat="44.34877" lon="2.6703">
        <ele>628.8395996</ele>
        <time>2014-03-08T08:15:38Z</time>
      </trkpt>
      <trkpt lat="44.34892" lon="2.67015">
        <ele>625.4748535</ele>
        <time>2014-03-08T08:15:43Z</time>
      </trkpt>
      <trkpt lat="44.34907" lon="2.66997">
        <ele>621.1491699</ele>
        <time>2014-03-08T08:15:48Z</time>
      </trkpt>
      <trkpt lat="44.34922" lon="2.6698">
        <ele>616.822998</ele>
        <time>2014-03-08T08:15:53Z</time>
      </trkpt>
      <trkpt lat="44.34933" lon="2.66969">
        <ele>614.4196777</ele>
        <time>2014-03-08T08:15:57Z</time>
      </trkpt>
      <trkpt lat="44.34945" lon="2.66962">
        <ele>612.4970703</ele>
        <time>2014-03-08T08:16:01Z</time>
      </trkpt>
      <trkpt lat="44.34951" lon="2.66951">
        <ele>610.09375</ele>
        <time>2014-03-08T08:16:05Z</time>
      </trkpt>
      <trkpt lat="44.34944" lon="2.66944">
        <ele>610.09375</ele>
        <time>2014-03-08T08:16:08Z</time>
      </trkpt>
      <trkpt lat="44.34919" lon="2.66935">
        <ele>609.1325684</ele>
        <time>2014-03-08T08:16:15Z</time>
      </trkpt>
      <trkpt lat="44.34901" lon="2.6693">
        <ele>606.729248</ele>
        <time>2014-03-08T08:16:20Z</time>
      </trkpt>
      <trkpt lat="44.34884" lon="2.66924">
        <ele>602.8837891</ele>
        <time>2014-03-08T08:16:25Z</time>
      </trkpt>
      <trkpt lat="44.34869" lon="2.66919">
        <ele>599.0385742</ele>
        <time>2014-03-08T08:16:30Z</time>
      </trkpt>
      <trkpt lat="44.34849" lon="2.66914">
        <ele>595.6740723</ele>
        <time>2014-03-08T08:16:36Z</time>
      </trkpt>
      <trkpt lat="44.3484" lon="2.66913">
        <ele>593.270752</ele>
        <time>2014-03-08T08:16:40Z</time>
      </trkpt>
      <trkpt lat="44.34828" lon="2.66921">
        <ele>593.7514648</ele>
        <time>2014-03-08T08:16:45Z</time>
      </trkpt>
      <trkpt lat="44.34818" lon="2.6692">
        <ele>593.270752</ele>
        <time>2014-03-08T08:16:51Z</time>
      </trkpt>
      <trkpt lat="44.34803" lon="2.66913">
        <ele>594.7126465</ele>
        <time>2014-03-08T08:16:58Z</time>
      </trkpt>
      <trkpt lat="44.34801" lon="2.66911">
        <ele>594.7126465</ele>
        <time>2014-03-08T08:16:59Z</time>
      </trkpt>
      <trkpt lat="44.34803" lon="2.66897">
        <ele>593.270752</ele>
        <time>2014-03-08T08:17:04Z</time>
      </trkpt>
      <trkpt lat="44.34807" lon="2.66887">
        <ele>591.8288574</ele>
        <time>2014-03-08T08:17:08Z</time>
      </trkpt>
      <trkpt lat="44.34811" lon="2.66872">
        <ele>595.6740723</ele>
        <time>2014-03-08T08:17:13Z</time>
      </trkpt>
      <trkpt lat="44.34812" lon="2.66863">
        <ele>595.6740723</ele>
        <time>2014-03-08T08:17:17Z</time>
      </trkpt>
      <trkpt lat="44.34814" lon="2.66845">
        <ele>601.4418945</ele>
        <time>2014-03-08T08:17:23Z</time>
      </trkpt>
      <trkpt lat="44.34813" lon="2.6683">
        <ele>602.8837891</ele>
        <time>2014-03-08T08:17:28Z</time>
      </trkpt>
      <trkpt lat="44.34813" lon="2.66827">
        <ele>603.364502</ele>
        <time>2014-03-08T08:17:29Z</time>
      </trkpt>
      <trkpt lat="44.34812" lon="2.66823">
        <ele>604.8066406</ele>
        <time>2014-03-08T08:17:31Z</time>
      </trkpt>
      <trkpt lat="44.34809" lon="2.66818">
        <ele>606.2485352</ele>
        <time>2014-03-08T08:17:35Z</time>
      </trkpt>
      <trkpt lat="44.34804" lon="2.66813">
        <ele>612.9777832</ele>
        <time>2014-03-08T08:17:41Z</time>
      </trkpt>
      <trkpt lat="44.34798" lon="2.66808">
        <ele>618.7456055</ele>
        <time>2014-03-08T08:17:47Z</time>
      </trkpt>
      <trkpt lat="44.34792" lon="2.66805">
        <ele>620.668457</ele>
        <time>2014-03-08T08:17:54Z</time>
      </trkpt>
      <trkpt lat="44.34787" lon="2.66807">
        <ele>621.6296387</ele>
        <time>2014-03-08T08:17:58Z</time>
      </trkpt>
      <trkpt lat="44.34785" lon="2.66801">
        <ele>622.5910645</ele>
        <time>2014-03-08T08:18:02Z</time>
      </trkpt>
      <trkpt lat="44.34785" lon="2.66795">
        <ele>620.668457</ele>
        <time>2014-03-08T08:18:03Z</time>
      </trkpt>
      <trkpt lat="44.34781" lon="2.66789">
        <ele>622.5910645</ele>
        <time>2014-03-08T08:18:08Z</time>
      </trkpt>
      <trkpt lat="44.34774" lon="2.66782">
        <ele>622.5910645</ele>
        <time>2014-03-08T08:18:15Z</time>
      </trkpt>
      <trkpt lat="44.34767" lon="2.66774">
        <ele>625.4748535</ele>
        <time>2014-03-08T08:18:24Z</time>
      </trkpt>
      <trkpt lat="44.3476" lon="2.66771">
        <ele>628.3588867</ele>
        <time>2014-03-08T08:18:31Z</time>
      </trkpt>
      <trkpt lat="44.3475" lon="2.66773">
        <ele>634.6074219</ele>
        <time>2014-03-08T08:18:41Z</time>
      </trkpt>
      <trkpt lat="44.34743" lon="2.66775">
        <ele>638.4528809</ele>
        <time>2014-03-08T08:18:49Z</time>
      </trkpt>
      <trkpt lat="44.34735" lon="2.66775">
        <ele>641.8173828</ele>
        <time>2014-03-08T08:18:58Z</time>
      </trkpt>
      <trkpt lat="44.3473" lon="2.66773">
        <ele>644.2207031</ele>
        <time>2014-03-08T08:19:05Z</time>
      </trkpt>
      <trkpt lat="44.34724" lon="2.66772">
        <ele>648.065918</ele>
        <time>2014-03-08T08:19:14Z</time>
      </trkpt>
      <trkpt lat="44.34719" lon="2.6677">
        <ele>649.5078125</ele>
        <time>2014-03-08T08:19:19Z</time>
      </trkpt>
      <trkpt lat="44.34715" lon="2.6677">
        <ele>650.949707</ele>
        <time>2014-03-08T08:19:26Z</time>
      </trkpt>
      <trkpt lat="44.3471" lon="2.66771">
        <ele>652.8725586</ele>
        <time>2014-03-08T08:19:32Z</time>
      </trkpt>
      <trkpt lat="44.34704" lon="2.6677">
        <ele>654.795166</ele>
        <time>2014-03-08T08:19:40Z</time>
      </trkpt>
      <trkpt lat="44.34701" lon="2.66769">
        <ele>656.2370605</ele>
        <time>2014-03-08T08:19:47Z</time>
      </trkpt>
      <trkpt lat="44.34696" lon="2.66768">
        <ele>657.1984863</ele>
        <time>2014-03-08T08:19:53Z</time>
      </trkpt>
      <trkpt lat="44.34689" lon="2.66764">
        <ele>658.6403809</ele>
        <time>2014-03-08T08:20:01Z</time>
      </trkpt>
      <trkpt lat="44.34685" lon="2.66762">
        <ele>658.6403809</ele>
        <time>2014-03-08T08:20:05Z</time>
      </trkpt>
      <trkpt lat="44.34674" lon="2.66758">
        <ele>660.0822754</ele>
        <time>2014-03-08T08:20:15Z</time>
      </trkpt>
      <trkpt lat="44.34667" lon="2.66756">
        <ele>662.005127</ele>
        <time>2014-03-08T08:20:22Z</time>
      </trkpt>
      <trkpt lat="44.34662" lon="2.66757">
        <ele>663.9274902</ele>
        <time>2014-03-08T08:20:27Z</time>
      </trkpt>
      <trkpt lat="44.34654" lon="2.66757">
        <ele>667.7727051</ele>
        <time>2014-03-08T08:20:36Z</time>
      </trkpt>
      <trkpt lat="44.34648" lon="2.6676">
        <ele>669.6958008</ele>
        <time>2014-03-08T08:20:43Z</time>
      </trkpt>
      <trkpt lat="44.34642" lon="2.66764">
        <ele>672.5795898</ele>
        <time>2014-03-08T08:20:50Z</time>
      </trkpt>
      <trkpt lat="44.34636" lon="2.66767">
        <ele>674.9829102</ele>
        <time>2014-03-08T08:20:56Z</time>
      </trkpt>
      <trkpt lat="44.34626" lon="2.66772">
        <ele>677.3862305</ele>
        <time>2014-03-08T08:21:06Z</time>
      </trkpt>
      <trkpt lat="44.34621" lon="2.66776">
        <ele>680.7507324</ele>
        <time>2014-03-08T08:21:12Z</time>
      </trkpt>
      <trkpt lat="44.34616" lon="2.66773">
        <ele>681.2314453</ele>
        <time>2014-03-08T08:21:17Z</time>
      </trkpt>
      <trkpt lat="44.34613" lon="2.66769">
        <ele>681.7119141</ele>
        <time>2014-03-08T08:21:21Z</time>
      </trkpt>
      <trkpt lat="44.34606" lon="2.66762">
        <ele>683.1538086</ele>
        <time>2014-03-08T08:21:28Z</time>
      </trkpt>
      <trkpt lat="44.34604" lon="2.66759">
        <ele>684.5961914</ele>
        <time>2014-03-08T08:21:31Z</time>
      </trkpt>
      <trkpt lat="44.34597" lon="2.66751">
        <ele>686.5187988</ele>
        <time>2014-03-08T08:21:40Z</time>
      </trkpt>
      <trkpt lat="44.34591" lon="2.66743">
        <ele>690.8444824</ele>
        <time>2014-03-08T08:21:48Z</time>
      </trkpt>
      <trkpt lat="44.34587" lon="2.6674">
        <ele>691.8059082</ele>
        <time>2014-03-08T08:21:53Z</time>
      </trkpt>
      <trkpt lat="44.34583" lon="2.66735">
        <ele>692.767334</ele>
        <time>2014-03-08T08:22:00Z</time>
      </trkpt>
      <trkpt lat="44.34582" lon="2.6673">
        <ele>692.2866211</ele>
        <time>2014-03-08T08:22:07Z</time>
      </trkpt>
      <trkpt lat="44.34582" lon="2.66724">
        <ele>693.2478027</ele>
        <time>2014-03-08T08:22:13Z</time>
      </trkpt>
      <trkpt lat="44.34583" lon="2.66722">
        <ele>695.651123</ele>
        <time>2014-03-08T08:22:20Z</time>
      </trkpt>
      <trkpt lat="44.34585" lon="2.6672">
        <ele>697.0930176</ele>
        <time>2014-03-08T08:22:28Z</time>
      </trkpt>
      <trkpt lat="44.34578" lon="2.66716">
        <ele>698.0544434</ele>
        <time>2014-03-08T08:22:34Z</time>
      </trkpt>
      <trkpt lat="44.34576" lon="2.66715">
        <ele>697.5737305</ele>
        <time>2014-03-08T08:22:36Z</time>
      </trkpt>
      <trkpt lat="44.34571" lon="2.66708">
        <ele>698.5349121</ele>
        <time>2014-03-08T08:22:40Z</time>
      </trkpt>
      <trkpt lat="44.34565" lon="2.66702">
        <ele>698.5349121</ele>
        <time>2014-03-08T08:22:44Z</time>
      </trkpt>
      <trkpt lat="44.3456" lon="2.66699">
        <ele>698.5349121</ele>
        <time>2014-03-08T08:22:48Z</time>
      </trkpt>
      <trkpt lat="44.34553" lon="2.66681">
        <ele>699.015625</ele>
        <time>2014-03-08T08:22:55Z</time>
      </trkpt>
      <trkpt lat="44.34548" lon="2.66661">
        <ele>699.4963379</ele>
        <time>2014-03-08T08:23:01Z</time>
      </trkpt>
      <trkpt lat="44.34545" lon="2.6664">
        <ele>699.015625</ele>
        <time>2014-03-08T08:23:06Z</time>
      </trkpt>
      <trkpt lat="44.34542" lon="2.66621">
        <ele>698.0544434</ele>
        <time>2014-03-08T08:23:11Z</time>
      </trkpt>
      <trkpt lat="44.34539" lon="2.66605">
        <ele>697.0930176</ele>
        <time>2014-03-08T08:23:15Z</time>
      </trkpt>
      <trkpt lat="44.34536" lon="2.66586">
        <ele>693.2478027</ele>
        <time>2014-03-08T08:23:20Z</time>
      </trkpt>
      <trkpt lat="44.34534" lon="2.66568">
        <ele>688.4414063</ele>
        <time>2014-03-08T08:23:25Z</time>
      </trkpt>
      <trkpt lat="44.34532" lon="2.66551">
        <ele>684.1154785</ele>
        <time>2014-03-08T08:23:30Z</time>
      </trkpt>
      <trkpt lat="44.3453" lon="2.66535">
        <ele>678.3474121</ele>
        <time>2014-03-08T08:23:35Z</time>
      </trkpt>
      <trkpt lat="44.34529" lon="2.66532">
        <ele>677.3862305</ele>
        <time>2014-03-08T08:23:36Z</time>
      </trkpt>
      <trkpt lat="44.34525" lon="2.66516">
        <ele>671.1376953</ele>
        <time>2014-03-08T08:23:41Z</time>
      </trkpt>
      <trkpt lat="44.34525" lon="2.66504">
        <ele>666.8115234</ele>
        <time>2014-03-08T08:23:45Z</time>
      </trkpt>
      <trkpt lat="44.34521" lon="2.66501">
        <ele>666.8115234</ele>
        <time>2014-03-08T08:23:48Z</time>
      </trkpt>
      <trkpt lat="44.34509" lon="2.66502">
        <ele>665.8503418</ele>
        <time>2014-03-08T08:23:52Z</time>
      </trkpt>
      <trkpt lat="44.34492" lon="2.66507">
        <ele>663.9274902</ele>
        <time>2014-03-08T08:23:58Z</time>
      </trkpt>
      <trkpt lat="44.34485" lon="2.6651">
        <ele>663.9274902</ele>
        <time>2014-03-08T08:24:01Z</time>
      </trkpt>
      <trkpt lat="44.34475" lon="2.6652">
        <ele>667.7727051</ele>
        <time>2014-03-08T08:24:06Z</time>
      </trkpt>
      <trkpt lat="44.34466" lon="2.66532">
        <ele>669.6958008</ele>
        <time>2014-03-08T08:24:11Z</time>
      </trkpt>
      <trkpt lat="44.34464" lon="2.66534">
        <ele>669.6958008</ele>
        <time>2014-03-08T08:24:12Z</time>
      </trkpt>
      <trkpt lat="44.34457" lon="2.66532">
        <ele>667.7727051</ele>
        <time>2014-03-08T08:24:17Z</time>
      </trkpt>
      <trkpt lat="44.34457" lon="2.66524">
        <ele>664.4082031</ele>
        <time>2014-03-08T08:24:22Z</time>
      </trkpt>
      <trkpt lat="44.34461" lon="2.66515">
        <ele>662.4855957</ele>
        <time>2014-03-08T08:24:27Z</time>
      </trkpt>
      <trkpt lat="44.34462" lon="2.66513">
        <ele>661.0437012</ele>
        <time>2014-03-08T08:24:28Z</time>
      </trkpt>
      <trkpt lat="44.34463" lon="2.6651">
        <ele>658.6403809</ele>
        <time>2014-03-08T08:24:30Z</time>
      </trkpt>
      <trkpt lat="44.34463" lon="2.66503">
        <ele>657.6791992</ele>
        <time>2014-03-08T08:24:33Z</time>
      </trkpt>
      <trkpt lat="44.3446" lon="2.66491">
        <ele>651.9111328</ele>
        <time>2014-03-08T08:24:38Z</time>
      </trkpt>
      <trkpt lat="44.34452" lon="2.66482">
        <ele>646.6240234</ele>
        <time>2014-03-08T08:24:43Z</time>
      </trkpt>
      <trkpt lat="44.34449" lon="2.66479">
        <ele>644.7011719</ele>
        <time>2014-03-08T08:24:45Z</time>
      </trkpt>
      <trkpt lat="44.34436" lon="2.66482">
        <ele>646.6240234</ele>
        <time>2014-03-08T08:24:51Z</time>
      </trkpt>
      <trkpt lat="44.34427" lon="2.66487">
        <ele>648.065918</ele>
        <time>2014-03-08T08:24:56Z</time>
      </trkpt>
      <trkpt lat="44.34425" lon="2.66488">
        <ele>649.9885254</ele>
        <time>2014-03-08T08:24:57Z</time>
      </trkpt>
      <trkpt lat="44.34419" lon="2.66492">
        <ele>649.5078125</ele>
        <time>2014-03-08T08:25:01Z</time>
      </trkpt>
      <trkpt lat="44.34408" lon="2.66503">
        <ele>649.0270996</ele>
        <time>2014-03-08T08:25:08Z</time>
      </trkpt>
      <trkpt lat="44.34396" lon="2.66511">
        <ele>652.8725586</ele>
        <time>2014-03-08T08:25:14Z</time>
      </trkpt>
      <trkpt lat="44.34393" lon="2.66515">
        <ele>653.8339844</ele>
        <time>2014-03-08T08:25:16Z</time>
      </trkpt>
      <trkpt lat="44.34387" lon="2.66526">
        <ele>655.7565918</ele>
        <time>2014-03-08T08:25:20Z</time>
      </trkpt>
      <trkpt lat="44.34377" lon="2.66538">
        <ele>659.1210938</ele>
        <time>2014-03-08T08:25:25Z</time>
      </trkpt>
      <trkpt lat="44.34368" lon="2.66548">
        <ele>663.9274902</ele>
        <time>2014-03-08T08:25:30Z</time>
      </trkpt>
      <trkpt lat="44.34361" lon="2.66554">
        <ele>666.3308105</ele>
        <time>2014-03-08T08:25:35Z</time>
      </trkpt>
      <trkpt lat="44.34348" lon="2.66557">
        <ele>665.8503418</ele>
        <time>2014-03-08T08:25:40Z</time>
      </trkpt>
      <trkpt lat="44.34333" lon="2.66557">
        <ele>664.888916</ele>
        <time>2014-03-08T08:25:46Z</time>
      </trkpt>
      <trkpt lat="44.34319" lon="2.66554">
        <ele>663.9274902</ele>
        <time>2014-03-08T08:25:51Z</time>
      </trkpt>
      <trkpt lat="44.34306" lon="2.66549">
        <ele>664.4082031</ele>
        <time>2014-03-08T08:25:57Z</time>
      </trkpt>
      <trkpt lat="44.34295" lon="2.66552">
        <ele>664.4082031</ele>
        <time>2014-03-08T08:26:01Z</time>
      </trkpt>
      <trkpt lat="44.34281" lon="2.66561">
        <ele>666.3308105</ele>
        <time>2014-03-08T08:26:08Z</time>
      </trkpt>
      <trkpt lat="44.34274" lon="2.66567">
        <ele>668.2536621</ele>
        <time>2014-03-08T08:26:12Z</time>
      </trkpt>
      <trkpt lat="44.34266" lon="2.66576">
        <ele>670.6569824</ele>
        <time>2014-03-08T08:26:19Z</time>
      </trkpt>
      <trkpt lat="44.34261" lon="2.66583">
        <ele>671.6181641</ele>
        <time>2014-03-08T08:26:25Z</time>
      </trkpt>
      <trkpt lat="44.3426" lon="2.66584">
        <ele>672.098877</ele>
        <time>2014-03-08T08:26:26Z</time>
      </trkpt>
      <trkpt lat="44.34255" lon="2.6659">
        <ele>674.5021973</ele>
        <time>2014-03-08T08:26:31Z</time>
      </trkpt>
      <trkpt lat="44.34248" lon="2.66595">
        <ele>675.9440918</ele>
        <time>2014-03-08T08:26:37Z</time>
      </trkpt>
      <trkpt lat="44.34244" lon="2.66598">
        <ele>682.192627</ele>
        <time>2014-03-08T08:26:45Z</time>
      </trkpt>
      <trkpt lat="44.3424" lon="2.666">
        <ele>683.6345215</ele>
        <time>2014-03-08T08:26:53Z</time>
      </trkpt>
      <trkpt lat="44.34229" lon="2.66605">
        <ele>684.1154785</ele>
        <time>2014-03-08T08:26:58Z</time>
      </trkpt>
      <trkpt lat="44.34219" lon="2.66612">
        <ele>686.5187988</ele>
        <time>2014-03-08T08:27:02Z</time>
      </trkpt>
      <trkpt lat="44.34207" lon="2.66621">
        <ele>687.9606934</ele>
        <time>2014-03-08T08:27:06Z</time>
      </trkpt>
      <trkpt lat="44.34195" lon="2.66629">
        <ele>691.3251953</ele>
        <time>2014-03-08T08:27:12Z</time>
      </trkpt>
      <trkpt lat="44.34193" lon="2.6663">
        <ele>690.8444824</ele>
        <time>2014-03-08T08:27:13Z</time>
      </trkpt>
      <trkpt lat="44.34186" lon="2.66642">
        <ele>689.4025879</ele>
        <time>2014-03-08T08:27:18Z</time>
      </trkpt>
      <trkpt lat="44.34184" lon="2.66647">
        <ele>689.4025879</ele>
        <time>2014-03-08T08:27:20Z</time>
      </trkpt>
      <trkpt lat="44.34176" lon="2.66654">
        <ele>686.5187988</ele>
        <time>2014-03-08T08:27:25Z</time>
      </trkpt>
      <trkpt lat="44.34167" lon="2.6666">
        <ele>682.192627</ele>
        <time>2014-03-08T08:27:29Z</time>
      </trkpt>
      <trkpt lat="44.34153" lon="2.66666">
        <ele>679.7893066</ele>
        <time>2014-03-08T08:27:35Z</time>
      </trkpt>
      <trkpt lat="44.34142" lon="2.66673">
        <ele>678.828125</ele>
        <time>2014-03-08T08:27:40Z</time>
      </trkpt>
      <trkpt lat="44.34134" lon="2.66668">
        <ele>674.5021973</ele>
        <time>2014-03-08T08:27:45Z</time>
      </trkpt>
      <trkpt lat="44.34126" lon="2.66664">
        <ele>671.6181641</ele>
        <time>2014-03-08T08:27:49Z</time>
      </trkpt>
      <trkpt lat="44.34116" lon="2.6667">
        <ele>666.3308105</ele>
        <time>2014-03-08T08:27:54Z</time>
      </trkpt>
      <trkpt lat="44.34109" lon="2.6668">
        <ele>668.734375</ele>
        <time>2014-03-08T08:27:58Z</time>
      </trkpt>
      <trkpt lat="44.34109" lon="2.66684">
        <ele>672.098877</ele>
        <time>2014-03-08T08:28:00Z</time>
      </trkpt>
      <trkpt lat="44.34099" lon="2.66684">
        <ele>675.9440918</ele>
        <time>2014-03-08T08:28:04Z</time>
      </trkpt>
      <trkpt lat="44.34087" lon="2.66672">
        <ele>673.5410156</ele>
        <time>2014-03-08T08:28:10Z</time>
      </trkpt>
      <trkpt lat="44.34079" lon="2.66663">
        <ele>674.0214844</ele>
        <time>2014-03-08T08:28:14Z</time>
      </trkpt>
      <trkpt lat="44.34075" lon="2.66657">
        <ele>673.0603027</ele>
        <time>2014-03-08T08:28:17Z</time>
      </trkpt>
      <trkpt lat="44.34068" lon="2.66651">
        <ele>671.6181641</ele>
        <time>2014-03-08T08:28:21Z</time>
      </trkpt>
      <trkpt lat="44.34065" lon="2.66644">
        <ele>670.6569824</ele>
        <time>2014-03-08T08:28:24Z</time>
      </trkpt>
      <trkpt lat="44.3406" lon="2.66632">
        <ele>667.7727051</ele>
        <time>2014-03-08T08:28:28Z</time>
      </trkpt>
      <trkpt lat="44.34051" lon="2.66619">
        <ele>663.4470215</ele>
        <time>2014-03-08T08:28:34Z</time>
      </trkpt>
      <trkpt lat="44.34042" lon="2.66609">
        <ele>661.5244141</ele>
        <time>2014-03-08T08:28:38Z</time>
      </trkpt>
      <trkpt lat="44.3403" lon="2.66605">
        <ele>660.5629883</ele>
        <time>2014-03-08T08:28:42Z</time>
      </trkpt>
      <trkpt lat="44.34017" lon="2.66604">
        <ele>664.4082031</ele>
        <time>2014-03-08T08:28:48Z</time>
      </trkpt>
      <trkpt lat="44.34008" lon="2.66596">
        <ele>663.9274902</ele>
        <time>2014-03-08T08:28:52Z</time>
      </trkpt>
      <trkpt lat="44.33999" lon="2.66577">
        <ele>666.3308105</ele>
        <time>2014-03-08T08:28:57Z</time>
      </trkpt>
      <trkpt lat="44.33991" lon="2.66554">
        <ele>665.8503418</ele>
        <time>2014-03-08T08:29:03Z</time>
      </trkpt>
      <trkpt lat="44.33984" lon="2.66538">
        <ele>665.8503418</ele>
        <time>2014-03-08T08:29:07Z</time>
      </trkpt>
      <trkpt lat="44.33973" lon="2.66525">
        <ele>662.005127</ele>
        <time>2014-03-08T08:29:11Z</time>
      </trkpt>
      <trkpt lat="44.3396" lon="2.66522">
        <ele>657.1984863</ele>
        <time>2014-03-08T08:29:15Z</time>
      </trkpt>
      <trkpt lat="44.33955" lon="2.66521">
        <ele>656.7177734</ele>
        <time>2014-03-08T08:29:18Z</time>
      </trkpt>
      <trkpt lat="44.33946" lon="2.66518">
        <ele>654.795166</ele>
        <time>2014-03-08T08:29:23Z</time>
      </trkpt>
      <trkpt lat="44.3394" lon="2.66516">
        <ele>653.3532715</ele>
        <time>2014-03-08T08:29:27Z</time>
      </trkpt>
      <trkpt lat="44.33932" lon="2.66516">
        <ele>650.4692383</ele>
        <time>2014-03-08T08:29:30Z</time>
      </trkpt>
      <trkpt lat="44.33916" lon="2.66514">
        <ele>647.1044922</ele>
        <time>2014-03-08T08:29:35Z</time>
      </trkpt>
      <trkpt lat="44.33899" lon="2.66511">
        <ele>645.1818848</ele>
        <time>2014-03-08T08:29:40Z</time>
      </trkpt>
      <trkpt lat="44.3389" lon="2.66507">
        <ele>642.2980957</ele>
        <time>2014-03-08T08:29:44Z</time>
      </trkpt>
      <trkpt lat="44.33878" lon="2.66502">
        <ele>639.8947754</ele>
        <time>2014-03-08T08:29:48Z</time>
      </trkpt>
      <trkpt lat="44.33867" lon="2.66493">
        <ele>637.0107422</ele>
        <time>2014-03-08T08:29:52Z</time>
      </trkpt>
      <trkpt lat="44.33856" lon="2.66485">
        <ele>634.6074219</ele>
        <time>2014-03-08T08:29:55Z</time>
      </trkpt>
      <trkpt lat="44.33845" lon="2.66476">
        <ele>631.7233887</ele>
        <time>2014-03-08T08:29:59Z</time>
      </trkpt>
      <trkpt lat="44.33826" lon="2.66469">
        <ele>630.2814941</ele>
        <time>2014-03-08T08:30:04Z</time>
      </trkpt>
      <trkpt lat="44.33815" lon="2.66467">
        <ele>621.1491699</ele>
        <time>2014-03-08T08:30:08Z</time>
      </trkpt>
      <trkpt lat="44.33798" lon="2.6647">
        <ele>613.9389648</ele>
        <time>2014-03-08T08:30:13Z</time>
      </trkpt>
      <trkpt lat="44.33784" lon="2.66481">
        <ele>611.5358887</ele>
        <time>2014-03-08T08:30:17Z</time>
      </trkpt>
      <trkpt lat="44.33778" lon="2.66489">
        <ele>609.6132813</ele>
        <time>2014-03-08T08:30:20Z</time>
      </trkpt>
      <trkpt lat="44.33776" lon="2.66479">
        <ele>606.729248</ele>
        <time>2014-03-08T08:30:24Z</time>
      </trkpt>
      <trkpt lat="44.33777" lon="2.66476">
        <ele>606.2485352</ele>
        <time>2014-03-08T08:30:25Z</time>
      </trkpt>
      <trkpt lat="44.3378" lon="2.66456">
        <ele>606.729248</ele>
        <time>2014-03-08T08:30:30Z</time>
      </trkpt>
      <trkpt lat="44.33777" lon="2.66439">
        <ele>606.2485352</ele>
        <time>2014-03-08T08:30:34Z</time>
      </trkpt>
      <trkpt lat="44.33776" lon="2.66432">
        <ele>605.2873535</ele>
        <time>2014-03-08T08:30:36Z</time>
      </trkpt>
      <trkpt lat="44.33783" lon="2.66422">
        <ele>606.729248</ele>
        <time>2014-03-08T08:30:41Z</time>
      </trkpt>
      <trkpt lat="44.33792" lon="2.66422">
        <ele>609.1325684</ele>
        <time>2014-03-08T08:30:45Z</time>
      </trkpt>
      <trkpt lat="44.33804" lon="2.66426">
        <ele>610.09375</ele>
        <time>2014-03-08T08:30:49Z</time>
      </trkpt>
      <trkpt lat="44.33813" lon="2.66426">
        <ele>614.4196777</ele>
        <time>2014-03-08T08:30:53Z</time>
      </trkpt>
      <trkpt lat="44.33816" lon="2.66425">
        <ele>615.8618164</ele>
        <time>2014-03-08T08:30:54Z</time>
      </trkpt>
      <trkpt lat="44.33836" lon="2.66423">
        <ele>622.1103516</ele>
        <time>2014-03-08T08:31:00Z</time>
      </trkpt>
      <trkpt lat="44.33847" lon="2.66426">
        <ele>623.5524902</ele>
        <time>2014-03-08T08:31:04Z</time>
      </trkpt>
      <trkpt lat="44.33857" lon="2.66423">
        <ele>624.032959</ele>
        <time>2014-03-08T08:31:08Z</time>
      </trkpt>
      <trkpt lat="44.33871" lon="2.66422">
        <ele>618.2648926</ele>
        <time>2014-03-08T08:31:13Z</time>
      </trkpt>
      <trkpt lat="44.33887" lon="2.66419">
        <ele>616.3422852</ele>
        <time>2014-03-08T08:31:18Z</time>
      </trkpt>
      <trkpt lat="44.33899" lon="2.66416">
        <ele>611.5358887</ele>
        <time>2014-03-08T08:31:22Z</time>
      </trkpt>
      <trkpt lat="44.33914" lon="2.66407">
        <ele>607.6906738</ele>
        <time>2014-03-08T08:31:27Z</time>
      </trkpt>
      <trkpt lat="44.3392" lon="2.66405">
        <ele>605.2873535</ele>
        <time>2014-03-08T08:31:30Z</time>
      </trkpt>
      <trkpt lat="44.33937" lon="2.66394">
        <ele>600.4807129</ele>
        <time>2014-03-08T08:31:37Z</time>
      </trkpt>
      <trkpt lat="44.33956" lon="2.66386">
        <ele>595.1933594</ele>
        <time>2014-03-08T08:31:43Z</time>
      </trkpt>
      <trkpt lat="44.33973" lon="2.66383">
        <ele>591.8288574</ele>
        <time>2014-03-08T08:31:48Z</time>
      </trkpt>
      <trkpt lat="44.33981" lon="2.66388">
        <ele>591.3481445</ele>
        <time>2014-03-08T08:31:52Z</time>
      </trkpt>
      <trkpt lat="44.33995" lon="2.66387">
        <ele>600.4807129</ele>
        <time>2014-03-08T08:31:57Z</time>
      </trkpt>
      <trkpt lat="44.34007" lon="2.66383">
        <ele>608.6518555</ele>
        <time>2014-03-08T08:32:02Z</time>
      </trkpt>
      <trkpt lat="44.34022" lon="2.66389">
        <ele>605.7680664</ele>
        <time>2014-03-08T08:32:09Z</time>
      </trkpt>
      <trkpt lat="44.34027" lon="2.66386">
        <ele>604.3261719</ele>
        <time>2014-03-08T08:32:12Z</time>
      </trkpt>
      <trkpt lat="44.34035" lon="2.66386">
        <ele>606.729248</ele>
        <time>2014-03-08T08:32:16Z</time>
      </trkpt>
      <trkpt lat="44.34049" lon="2.66382">
        <ele>600.4807129</ele>
        <time>2014-03-08T08:32:22Z</time>
      </trkpt>
      <trkpt lat="44.34059" lon="2.66382">
        <ele>595.1933594</ele>
        <time>2014-03-08T08:32:28Z</time>
      </trkpt>
      <trkpt lat="44.34068" lon="2.66382">
        <ele>591.8288574</ele>
        <time>2014-03-08T08:32:33Z</time>
      </trkpt>
      <trkpt lat="44.34079" lon="2.66379">
        <ele>587.0219727</ele>
        <time>2014-03-08T08:32:39Z</time>
      </trkpt>
      <trkpt lat="44.34089" lon="2.66372">
        <ele>584.6188965</ele>
        <time>2014-03-08T08:32:45Z</time>
      </trkpt>
      <trkpt lat="44.34096" lon="2.66365">
        <ele>583.1767578</ele>
        <time>2014-03-08T08:32:49Z</time>
      </trkpt>
      <trkpt lat="44.34103" lon="2.66358">
        <ele>581.2543945</ele>
        <time>2014-03-08T08:32:53Z</time>
      </trkpt>
      <trkpt lat="44.3411" lon="2.6635">
        <ele>580.7736816</ele>
        <time>2014-03-08T08:32:59Z</time>
      </trkpt>
      <trkpt lat="44.34113" lon="2.66344">
        <ele>579.331543</ele>
        <time>2014-03-08T08:33:02Z</time>
      </trkpt>
      <trkpt lat="44.34117" lon="2.66336">
        <ele>587.5026855</ele>
        <time>2014-03-08T08:33:06Z</time>
      </trkpt>
      <trkpt lat="44.34124" lon="2.6632">
        <ele>603.364502</ele>
        <time>2014-03-08T08:33:14Z</time>
      </trkpt>
      <trkpt lat="44.34126" lon="2.66316">
        <ele>604.3261719</ele>
        <time>2014-03-08T08:33:17Z</time>
      </trkpt>
      <trkpt lat="44.34127" lon="2.66313">
        <ele>605.7680664</ele>
        <time>2014-03-08T08:33:19Z</time>
      </trkpt>
      <trkpt lat="44.34128" lon="2.66307">
        <ele>606.729248</ele>
        <time>2014-03-08T08:33:23Z</time>
      </trkpt>
      <trkpt lat="44.3413" lon="2.66303">
        <ele>607.6906738</ele>
        <time>2014-03-08T08:33:25Z</time>
      </trkpt>
      <trkpt lat="44.34132" lon="2.66301">
        <ele>606.729248</ele>
        <time>2014-03-08T08:33:27Z</time>
      </trkpt>
      <trkpt lat="44.34136" lon="2.66296">
        <ele>605.2873535</ele>
        <time>2014-03-08T08:33:31Z</time>
      </trkpt>
      <trkpt lat="44.34142" lon="2.66288">
        <ele>601.9226074</ele>
        <time>2014-03-08T08:33:37Z</time>
      </trkpt>
      <trkpt lat="44.34144" lon="2.66286">
        <ele>600.9611816</ele>
        <time>2014-03-08T08:33:38Z</time>
      </trkpt>
      <trkpt lat="44.34152" lon="2.66276">
        <ele>597.5966797</ele>
        <time>2014-03-08T08:33:44Z</time>
      </trkpt>
      <trkpt lat="44.3416" lon="2.66267">
        <ele>600</ele>
        <time>2014-03-08T08:33:49Z</time>
      </trkpt>
      <trkpt lat="44.34168" lon="2.6626">
        <ele>596.1547852</ele>
        <time>2014-03-08T08:33:55Z</time>
      </trkpt>
      <trkpt lat="44.34172" lon="2.66259">
        <ele>596.1547852</ele>
        <time>2014-03-08T08:33:57Z</time>
      </trkpt>
      <trkpt lat="44.34185" lon="2.66245">
        <ele>601.4418945</ele>
        <time>2014-03-08T08:34:05Z</time>
      </trkpt>
      <trkpt lat="44.34186" lon="2.66243">
        <ele>600.9611816</ele>
        <time>2014-03-08T08:34:06Z</time>
      </trkpt>
      <trkpt lat="44.34194" lon="2.66238">
        <ele>606.729248</ele>
        <time>2014-03-08T08:34:10Z</time>
      </trkpt>
      <trkpt lat="44.34208" lon="2.66227">
        <ele>618.7456055</ele>
        <time>2014-03-08T08:34:16Z</time>
      </trkpt>
      <trkpt lat="44.34213" lon="2.66222">
        <ele>618.2648926</ele>
        <time>2014-03-08T08:34:19Z</time>
      </trkpt>
      <trkpt lat="44.34217" lon="2.66217">
        <ele>621.1491699</ele>
        <time>2014-03-08T08:34:22Z</time>
      </trkpt>
      <trkpt lat="44.34223" lon="2.66209">
        <ele>623.5524902</ele>
        <time>2014-03-08T08:34:27Z</time>
      </trkpt>
      <trkpt lat="44.3423" lon="2.66199">
        <ele>626.4362793</ele>
        <time>2014-03-08T08:34:34Z</time>
      </trkpt>
      <trkpt lat="44.34244" lon="2.66185">
        <ele>632.6848145</ele>
        <time>2014-03-08T08:34:42Z</time>
      </trkpt>
      <trkpt lat="44.34253" lon="2.66173">
        <ele>632.2041016</ele>
        <time>2014-03-08T08:34:48Z</time>
      </trkpt>
      <trkpt lat="44.34255" lon="2.66166">
        <ele>630.762207</ele>
        <time>2014-03-08T08:34:51Z</time>
      </trkpt>
      <trkpt lat="44.34259" lon="2.66152">
        <ele>633.6459961</ele>
        <time>2014-03-08T08:34:57Z</time>
      </trkpt>
      <trkpt lat="44.34262" lon="2.66136">
        <ele>630.2814941</ele>
        <time>2014-03-08T08:35:03Z</time>
      </trkpt>
      <trkpt lat="44.34263" lon="2.66132">
        <ele>629.3200684</ele>
        <time>2014-03-08T08:35:05Z</time>
      </trkpt>
      <trkpt lat="44.3426" lon="2.66117">
        <ele>626.4362793</ele>
        <time>2014-03-08T08:35:10Z</time>
      </trkpt>
      <trkpt lat="44.34252" lon="2.661">
        <ele>624.9943848</ele>
        <time>2014-03-08T08:35:16Z</time>
      </trkpt>
      <trkpt lat="44.34244" lon="2.66087">
        <ele>624.5136719</ele>
        <time>2014-03-08T08:35:21Z</time>
      </trkpt>
      <trkpt lat="44.34241" lon="2.6608">
        <ele>626.9169922</ele>
        <time>2014-03-08T08:35:24Z</time>
      </trkpt>
      <trkpt lat="44.34241" lon="2.66065">
        <ele>632.2041016</ele>
        <time>2014-03-08T08:35:29Z</time>
      </trkpt>
      <trkpt lat="44.34243" lon="2.66051">
        <ele>635.0881348</ele>
        <time>2014-03-08T08:35:36Z</time>
      </trkpt>
      <trkpt lat="44.34243" lon="2.66049">
        <ele>635.0881348</ele>
        <time>2014-03-08T08:35:37Z</time>
      </trkpt>
      <trkpt lat="44.34243" lon="2.66041">
        <ele>635.0881348</ele>
        <time>2014-03-08T08:35:41Z</time>
      </trkpt>
      <trkpt lat="44.34243" lon="2.66028">
        <ele>634.6074219</ele>
        <time>2014-03-08T08:35:47Z</time>
      </trkpt>
      <trkpt lat="44.34242" lon="2.66016">
        <ele>630.2814941</ele>
        <time>2014-03-08T08:35:53Z</time>
      </trkpt>
      <trkpt lat="44.34237" lon="2.65999">
        <ele>628.8395996</ele>
        <time>2014-03-08T08:35:59Z</time>
      </trkpt>
      <trkpt lat="44.34233" lon="2.65982">
        <ele>624.9943848</ele>
        <time>2014-03-08T08:36:06Z</time>
      </trkpt>
      <trkpt lat="44.34232" lon="2.65973">
        <ele>624.032959</ele>
        <time>2014-03-08T08:36:11Z</time>
      </trkpt>
      <trkpt lat="44.34231" lon="2.65965">
        <ele>622.5910645</ele>
        <time>2014-03-08T08:36:15Z</time>
      </trkpt>
      <trkpt lat="44.34229" lon="2.65953">
        <ele>622.1103516</ele>
        <time>2014-03-08T08:36:21Z</time>
      </trkpt>
      <trkpt lat="44.34227" lon="2.65948">
        <ele>622.5910645</ele>
        <time>2014-03-08T08:36:24Z</time>
      </trkpt>
      <trkpt lat="44.34224" lon="2.65935">
        <ele>627.3977051</ele>
        <time>2014-03-08T08:36:32Z</time>
      </trkpt>
      <trkpt lat="44.34223" lon="2.65931">
        <ele>630.2814941</ele>
        <time>2014-03-08T08:36:35Z</time>
      </trkpt>
      <trkpt lat="44.34216" lon="2.65923">
        <ele>633.1652832</ele>
        <time>2014-03-08T08:36:41Z</time>
      </trkpt>
      <trkpt lat="44.34212" lon="2.65919">
        <ele>634.126709</ele>
        <time>2014-03-08T08:36:45Z</time>
      </trkpt>
      <trkpt lat="44.34201" lon="2.65912">
        <ele>636.0495605</ele>
        <time>2014-03-08T08:36:52Z</time>
      </trkpt>
      <trkpt lat="44.34199" lon="2.6591">
        <ele>636.5302734</ele>
        <time>2014-03-08T08:36:53Z</time>
      </trkpt>
      <trkpt lat="44.34191" lon="2.65903">
        <ele>635.5686035</ele>
        <time>2014-03-08T08:36:58Z</time>
      </trkpt>
      <trkpt lat="44.34183" lon="2.65898">
        <ele>635.0881348</ele>
        <time>2014-03-08T08:37:02Z</time>
      </trkpt>
      <trkpt lat="44.34169" lon="2.65892">
        <ele>635.0881348</ele>
        <time>2014-03-08T08:37:09Z</time>
      </trkpt>
      <trkpt lat="44.34159" lon="2.65887">
        <ele>636.5302734</ele>
        <time>2014-03-08T08:37:15Z</time>
      </trkpt>
      <trkpt lat="44.34152" lon="2.65884">
        <ele>642.7788086</ele>
        <time>2014-03-08T08:37:20Z</time>
      </trkpt>
      <trkpt lat="44.34145" lon="2.65879">
        <ele>649.0270996</ele>
        <time>2014-03-08T08:37:27Z</time>
      </trkpt>
      <trkpt lat="44.34144" lon="2.65878">
        <ele>649.9885254</ele>
        <time>2014-03-08T08:37:28Z</time>
      </trkpt>
      <trkpt lat="44.34138" lon="2.65873">
        <ele>651.9111328</ele>
        <time>2014-03-08T08:37:33Z</time>
      </trkpt>
      <trkpt lat="44.34128" lon="2.65868">
        <ele>657.6791992</ele>
        <time>2014-03-08T08:37:40Z</time>
      </trkpt>
      <trkpt lat="44.3412" lon="2.65864">
        <ele>662.005127</ele>
        <time>2014-03-08T08:37:46Z</time>
      </trkpt>
      <trkpt lat="44.34112" lon="2.65856">
        <ele>668.734375</ele>
        <time>2014-03-08T08:37:54Z</time>
      </trkpt>
      <trkpt lat="44.34102" lon="2.65849">
        <ele>678.828125</ele>
        <time>2014-03-08T08:38:03Z</time>
      </trkpt>
      <trkpt lat="44.34093" lon="2.65847">
        <ele>682.6733398</ele>
        <time>2014-03-08T08:38:10Z</time>
      </trkpt>
      <trkpt lat="44.34083" lon="2.65847">
        <ele>683.1538086</ele>
        <time>2014-03-08T08:38:15Z</time>
      </trkpt>
      <trkpt lat="44.34073" lon="2.65849">
        <ele>684.1154785</ele>
        <time>2014-03-08T08:38:20Z</time>
      </trkpt>
      <trkpt lat="44.3406" lon="2.65849">
        <ele>683.6345215</ele>
        <time>2014-03-08T08:38:25Z</time>
      </trkpt>
      <trkpt lat="44.34046" lon="2.6585">
        <ele>685.557373</ele>
        <time>2014-03-08T08:38:32Z</time>
      </trkpt>
      <trkpt lat="44.34034" lon="2.65848">
        <ele>687.4799805</ele>
        <time>2014-03-08T08:38:38Z</time>
      </trkpt>
      <trkpt lat="44.34024" lon="2.65852">
        <ele>689.8833008</ele>
        <time>2014-03-08T08:38:43Z</time>
      </trkpt>
      <trkpt lat="44.34015" lon="2.65855">
        <ele>689.8833008</ele>
        <time>2014-03-08T08:38:48Z</time>
      </trkpt>
      <trkpt lat="44.34002" lon="2.6586">
        <ele>690.8444824</ele>
        <time>2014-03-08T08:38:54Z</time>
      </trkpt>
      <trkpt lat="44.33989" lon="2.65868">
        <ele>695.1704102</ele>
        <time>2014-03-08T08:39:00Z</time>
      </trkpt>
      <trkpt lat="44.33987" lon="2.6587">
        <ele>695.1704102</ele>
        <time>2014-03-08T08:39:01Z</time>
      </trkpt>
      <trkpt lat="44.33976" lon="2.65876">
        <ele>694.2092285</ele>
        <time>2014-03-08T08:39:06Z</time>
      </trkpt>
      <trkpt lat="44.33963" lon="2.65883">
        <ele>692.767334</ele>
        <time>2014-03-08T08:39:11Z</time>
      </trkpt>
      <trkpt lat="44.33949" lon="2.65883">
        <ele>692.2866211</ele>
        <time>2014-03-08T08:39:16Z</time>
      </trkpt>
      <trkpt lat="44.33946" lon="2.65883">
        <ele>692.2866211</ele>
        <time>2014-03-08T08:39:17Z</time>
      </trkpt>
      <trkpt lat="44.33932" lon="2.65881">
        <ele>692.767334</ele>
        <time>2014-03-08T08:39:23Z</time>
      </trkpt>
      <trkpt lat="44.3392" lon="2.65875">
        <ele>692.767334</ele>
        <time>2014-03-08T08:39:28Z</time>
      </trkpt>
      <trkpt lat="44.33916" lon="2.65868">
        <ele>692.2866211</ele>
        <time>2014-03-08T08:39:30Z</time>
      </trkpt>
      <trkpt lat="44.33913" lon="2.65845">
        <ele>687.9606934</ele>
        <time>2014-03-08T08:39:36Z</time>
      </trkpt>
      <trkpt lat="44.33908" lon="2.6583">
        <ele>686.5187988</ele>
        <time>2014-03-08T08:39:40Z</time>
      </trkpt>
      <trkpt lat="44.33906" lon="2.65826">
        <ele>686.5187988</ele>
        <time>2014-03-08T08:39:41Z</time>
      </trkpt>
      <trkpt lat="44.33903" lon="2.6581">
        <ele>686.0380859</ele>
        <time>2014-03-08T08:39:45Z</time>
      </trkpt>
      <trkpt lat="44.33907" lon="2.65789">
        <ele>686.0380859</ele>
        <time>2014-03-08T08:39:50Z</time>
      </trkpt>
      <trkpt lat="44.33911" lon="2.65772">
        <ele>686.5187988</ele>
        <time>2014-03-08T08:39:55Z</time>
      </trkpt>
      <trkpt lat="44.33913" lon="2.65755">
        <ele>686.5187988</ele>
        <time>2014-03-08T08:40:00Z</time>
      </trkpt>
      <trkpt lat="44.33917" lon="2.65742">
        <ele>686.5187988</ele>
        <time>2014-03-08T08:40:04Z</time>
      </trkpt>
      <trkpt lat="44.33923" lon="2.65715">
        <ele>686.5187988</ele>
        <time>2014-03-08T08:40:12Z</time>
      </trkpt>
      <trkpt lat="44.33926" lon="2.65698">
        <ele>686.5187988</ele>
        <time>2014-03-08T08:40:17Z</time>
      </trkpt>
      <trkpt lat="44.33929" lon="2.65681">
        <ele>686.0380859</ele>
        <time>2014-03-08T08:40:22Z</time>
      </trkpt>
      <trkpt lat="44.33934" lon="2.65657">
        <ele>686.9992676</ele>
        <time>2014-03-08T08:40:29Z</time>
      </trkpt>
      <trkpt lat="44.33939" lon="2.65639">
        <ele>687.4799805</ele>
        <time>2014-03-08T08:40:34Z</time>
      </trkpt>
      <trkpt lat="44.33944" lon="2.65619">
        <ele>688.4414063</ele>
        <time>2014-03-08T08:40:39Z</time>
      </trkpt>
      <trkpt lat="44.33951" lon="2.65602">
        <ele>688.9221191</ele>
        <time>2014-03-08T08:40:44Z</time>
      </trkpt>
      <trkpt lat="44.33958" lon="2.65586">
        <ele>689.4025879</ele>
        <time>2014-03-08T08:40:49Z</time>
      </trkpt>
      <trkpt lat="44.33965" lon="2.65569">
        <ele>689.4025879</ele>
        <time>2014-03-08T08:40:54Z</time>
      </trkpt>
      <trkpt lat="44.33971" lon="2.65551">
        <ele>690.3640137</ele>
        <time>2014-03-08T08:40:59Z</time>
      </trkpt>
      <trkpt lat="44.33978" lon="2.65533">
        <ele>689.8833008</ele>
        <time>2014-03-08T08:41:04Z</time>
      </trkpt>
      <trkpt lat="44.33985" lon="2.6551">
        <ele>688.9221191</ele>
        <time>2014-03-08T08:41:10Z</time>
      </trkpt>
      <trkpt lat="44.33989" lon="2.65492">
        <ele>688.9221191</ele>
        <time>2014-03-08T08:41:15Z</time>
      </trkpt>
      <trkpt lat="44.33996" lon="2.65474">
        <ele>688.4414063</ele>
        <time>2014-03-08T08:41:20Z</time>
      </trkpt>
      <trkpt lat="44.34005" lon="2.65448">
        <ele>688.4414063</ele>
        <time>2014-03-08T08:41:27Z</time>
      </trkpt>
      <trkpt lat="44.34012" lon="2.65429">
        <ele>687.4799805</ele>
        <time>2014-03-08T08:41:32Z</time>
      </trkpt>
      <trkpt lat="44.3402" lon="2.65411">
        <ele>687.4799805</ele>
        <time>2014-03-08T08:41:37Z</time>
      </trkpt>
      <trkpt lat="44.34027" lon="2.65393">
        <ele>687.4799805</ele>
        <time>2014-03-08T08:41:42Z</time>
      </trkpt>
      <trkpt lat="44.34035" lon="2.65375">
        <ele>686.9992676</ele>
        <time>2014-03-08T08:41:47Z</time>
      </trkpt>
      <trkpt lat="44.34043" lon="2.65358">
        <ele>686.9992676</ele>
        <time>2014-03-08T08:41:52Z</time>
      </trkpt>
      <trkpt lat="44.34054" lon="2.65338">
        <ele>686.5187988</ele>
        <time>2014-03-08T08:41:58Z</time>
      </trkpt>
      <trkpt lat="44.34065" lon="2.65321">
        <ele>685.557373</ele>
        <time>2014-03-08T08:42:03Z</time>
      </trkpt>
      <trkpt lat="44.34075" lon="2.65306">
        <ele>684.5961914</ele>
        <time>2014-03-08T08:42:08Z</time>
      </trkpt>
      <trkpt lat="44.34084" lon="2.65294">
        <ele>683.1538086</ele>
        <time>2014-03-08T08:42:12Z</time>
      </trkpt>
      <trkpt lat="44.34096" lon="2.65277">
        <ele>681.2314453</ele>
        <time>2014-03-08T08:42:18Z</time>
      </trkpt>
      <trkpt lat="44.34103" lon="2.65266">
        <ele>680.2700195</ele>
        <time>2014-03-08T08:42:22Z</time>
      </trkpt>
      <trkpt lat="44.34112" lon="2.65252">
        <ele>678.828125</ele>
        <time>2014-03-08T08:42:27Z</time>
      </trkpt>
      <trkpt lat="44.34121" lon="2.65236">
        <ele>678.3474121</ele>
        <time>2014-03-08T08:42:32Z</time>
      </trkpt>
      <trkpt lat="44.34133" lon="2.65218">
        <ele>677.3862305</ele>
        <time>2014-03-08T08:42:38Z</time>
      </trkpt>
      <trkpt lat="44.3414" lon="2.65207">
        <ele>676.9055176</ele>
        <time>2014-03-08T08:42:42Z</time>
      </trkpt>
      <trkpt lat="44.34152" lon="2.65193">
        <ele>676.4248047</ele>
        <time>2014-03-08T08:42:47Z</time>
      </trkpt>
      <trkpt lat="44.34163" lon="2.65176">
        <ele>676.9055176</ele>
        <time>2014-03-08T08:42:53Z</time>
      </trkpt>
      <trkpt lat="44.34174" lon="2.65159">
        <ele>675.4633789</ele>
        <time>2014-03-08T08:42:59Z</time>
      </trkpt>
      <trkpt lat="44.34177" lon="2.65141">
        <ele>674.9829102</ele>
        <time>2014-03-08T08:43:04Z</time>
      </trkpt>
      <trkpt lat="44.34174" lon="2.65117">
        <ele>673.5410156</ele>
        <time>2014-03-08T08:43:10Z</time>
      </trkpt>
      <trkpt lat="44.3417" lon="2.65097">
        <ele>672.5795898</ele>
        <time>2014-03-08T08:43:15Z</time>
      </trkpt>
      <trkpt lat="44.34168" lon="2.65074">
        <ele>672.098877</ele>
        <time>2014-03-08T08:43:21Z</time>
      </trkpt>
      <trkpt lat="44.34162" lon="2.65049">
        <ele>671.6181641</ele>
        <time>2014-03-08T08:43:26Z</time>
      </trkpt>
      <trkpt lat="44.34156" lon="2.65024">
        <ele>671.6181641</ele>
        <time>2014-03-08T08:43:31Z</time>
      </trkpt>
      <trkpt lat="44.34153" lon="2.64998">
        <ele>671.1376953</ele>
        <time>2014-03-08T08:43:36Z</time>
      </trkpt>
      <trkpt lat="44.34149" lon="2.64972">
        <ele>670.1762695</ele>
        <time>2014-03-08T08:43:41Z</time>
      </trkpt>
      <trkpt lat="44.34147" lon="2.64939">
        <ele>668.734375</ele>
        <time>2014-03-08T08:43:48Z</time>
      </trkpt>
      <trkpt lat="44.34145" lon="2.64913">
        <ele>667.2922363</ele>
        <time>2014-03-08T08:43:53Z</time>
      </trkpt>
      <trkpt lat="44.34143" lon="2.64884">
        <ele>665.8503418</ele>
        <time>2014-03-08T08:43:59Z</time>
      </trkpt>
      <trkpt lat="44.34141" lon="2.6486">
        <ele>663.9274902</ele>
        <time>2014-03-08T08:44:04Z</time>
      </trkpt>
      <trkpt lat="44.34139" lon="2.64833">
        <ele>661.5244141</ele>
        <time>2014-03-08T08:44:10Z</time>
      </trkpt>
      <trkpt lat="44.34139" lon="2.64828">
        <ele>661.0437012</ele>
        <time>2014-03-08T08:44:12Z</time>
      </trkpt>
      <trkpt lat="44.34136" lon="2.64823">
        <ele>661.0437012</ele>
        <time>2014-03-08T08:44:18Z</time>
      </trkpt>
      <trkpt lat="44.34135" lon="2.64809">
        <ele>660.0822754</ele>
        <time>2014-03-08T08:44:24Z</time>
      </trkpt>
      <trkpt lat="44.34135" lon="2.64796">
        <ele>659.1210938</ele>
        <time>2014-03-08T08:44:28Z</time>
      </trkpt>
      <trkpt lat="44.34135" lon="2.64781">
        <ele>657.6791992</ele>
        <time>2014-03-08T08:44:32Z</time>
      </trkpt>
      <trkpt lat="44.34134" lon="2.64765">
        <ele>656.7177734</ele>
        <time>2014-03-08T08:44:38Z</time>
      </trkpt>
      <trkpt lat="44.34133" lon="2.64763">
        <ele>656.2370605</ele>
        <time>2014-03-08T08:44:40Z</time>
      </trkpt>
      <trkpt lat="44.34131" lon="2.64749">
        <ele>653.8339844</ele>
        <time>2014-03-08T08:44:45Z</time>
      </trkpt>
      <trkpt lat="44.34128" lon="2.64736">
        <ele>651.9111328</ele>
        <time>2014-03-08T08:44:49Z</time>
      </trkpt>
      <trkpt lat="44.34119" lon="2.64711">
        <ele>651.4304199</ele>
        <time>2014-03-08T08:44:57Z</time>
      </trkpt>
      <trkpt lat="44.34116" lon="2.64699">
        <ele>651.4304199</ele>
        <time>2014-03-08T08:45:01Z</time>
      </trkpt>
      <trkpt lat="44.34111" lon="2.64685">
        <ele>651.9111328</ele>
        <time>2014-03-08T08:45:05Z</time>
      </trkpt>
      <trkpt lat="44.34105" lon="2.64661">
        <ele>653.3532715</ele>
        <time>2014-03-08T08:45:12Z</time>
      </trkpt>
      <trkpt lat="44.341" lon="2.64642">
        <ele>654.795166</ele>
        <time>2014-03-08T08:45:17Z</time>
      </trkpt>
      <trkpt lat="44.34095" lon="2.64621">
        <ele>655.2758789</ele>
        <time>2014-03-08T08:45:22Z</time>
      </trkpt>
      <trkpt lat="44.3409" lon="2.646">
        <ele>656.2370605</ele>
        <time>2014-03-08T08:45:27Z</time>
      </trkpt>
      <trkpt lat="44.34085" lon="2.64578">
        <ele>658.6403809</ele>
        <time>2014-03-08T08:45:32Z</time>
      </trkpt>
      <trkpt lat="44.34081" lon="2.64556">
        <ele>659.6018066</ele>
        <time>2014-03-08T08:45:37Z</time>
      </trkpt>
      <trkpt lat="44.34077" lon="2.64537">
        <ele>660.0822754</ele>
        <time>2014-03-08T08:45:41Z</time>
      </trkpt>
      <trkpt lat="44.34073" lon="2.64514">
        <ele>660.0822754</ele>
        <time>2014-03-08T08:45:46Z</time>
      </trkpt>
      <trkpt lat="44.34069" lon="2.64489">
        <ele>660.0822754</ele>
        <time>2014-03-08T08:45:51Z</time>
      </trkpt>
      <trkpt lat="44.34068" lon="2.64479">
        <ele>659.6018066</ele>
        <time>2014-03-08T08:45:53Z</time>
      </trkpt>
      <trkpt lat="44.3407" lon="2.6445">
        <ele>657.6791992</ele>
        <time>2014-03-08T08:46:00Z</time>
      </trkpt>
      <trkpt lat="44.34073" lon="2.64429">
        <ele>655.7565918</ele>
        <time>2014-03-08T08:46:05Z</time>
      </trkpt>
      <trkpt lat="44.34072" lon="2.64408">
        <ele>656.2370605</ele>
        <time>2014-03-08T08:46:10Z</time>
      </trkpt>
      <trkpt lat="44.34068" lon="2.64387">
        <ele>657.1984863</ele>
        <time>2014-03-08T08:46:15Z</time>
      </trkpt>
      <trkpt lat="44.34064" lon="2.64365">
        <ele>657.1984863</ele>
        <time>2014-03-08T08:46:20Z</time>
      </trkpt>
      <trkpt lat="44.34063" lon="2.6434">
        <ele>658.6403809</ele>
        <time>2014-03-08T08:46:26Z</time>
      </trkpt>
      <trkpt lat="44.34062" lon="2.64318">
        <ele>660.5629883</ele>
        <time>2014-03-08T08:46:32Z</time>
      </trkpt>
      <trkpt lat="44.3406" lon="2.64297">
        <ele>662.4855957</ele>
        <time>2014-03-08T08:46:38Z</time>
      </trkpt>
      <trkpt lat="44.34055" lon="2.64273">
        <ele>663.4470215</ele>
        <time>2014-03-08T08:46:45Z</time>
      </trkpt>
      <trkpt lat="44.34052" lon="2.64254">
        <ele>662.9663086</ele>
        <time>2014-03-08T08:46:50Z</time>
      </trkpt>
      <trkpt lat="44.34048" lon="2.64241">
        <ele>663.9274902</ele>
        <time>2014-03-08T08:46:54Z</time>
      </trkpt>
      <trkpt lat="44.34048" lon="2.64238">
        <ele>663.9274902</ele>
        <time>2014-03-08T08:46:55Z</time>
      </trkpt>
      <trkpt lat="44.34041" lon="2.64222">
        <ele>664.4082031</ele>
        <time>2014-03-08T08:47:00Z</time>
      </trkpt>
      <trkpt lat="44.34033" lon="2.64206">
        <ele>665.3696289</ele>
        <time>2014-03-08T08:47:05Z</time>
      </trkpt>
      <trkpt lat="44.34024" lon="2.64187">
        <ele>666.8115234</ele>
        <time>2014-03-08T08:47:11Z</time>
      </trkpt>
      <trkpt lat="44.34014" lon="2.64166">
        <ele>667.7727051</ele>
        <time>2014-03-08T08:47:17Z</time>
      </trkpt>
      <trkpt lat="44.34007" lon="2.6415">
        <ele>668.2536621</ele>
        <time>2014-03-08T08:47:22Z</time>
      </trkpt>
      <trkpt lat="44.33998" lon="2.64132">
        <ele>668.2536621</ele>
        <time>2014-03-08T08:47:27Z</time>
      </trkpt>
      <trkpt lat="44.33992" lon="2.64112">
        <ele>669.2150879</ele>
        <time>2014-03-08T08:47:32Z</time>
      </trkpt>
      <trkpt lat="44.33988" lon="2.64093">
        <ele>668.734375</ele>
        <time>2014-03-08T08:47:37Z</time>
      </trkpt>
      <trkpt lat="44.33983" lon="2.64076">
        <ele>668.734375</ele>
        <time>2014-03-08T08:47:42Z</time>
      </trkpt>
      <trkpt lat="44.33977" lon="2.64058">
        <ele>669.6958008</ele>
        <time>2014-03-08T08:47:47Z</time>
      </trkpt>
      <trkpt lat="44.33969" lon="2.64038">
        <ele>669.6958008</ele>
        <time>2014-03-08T08:47:52Z</time>
      </trkpt>
      <trkpt lat="44.33961" lon="2.6402">
        <ele>670.1762695</ele>
        <time>2014-03-08T08:47:57Z</time>
      </trkpt>
      <trkpt lat="44.33954" lon="2.64002">
        <ele>670.6569824</ele>
        <time>2014-03-08T08:48:02Z</time>
      </trkpt>
      <trkpt lat="44.33948" lon="2.63988">
        <ele>671.1376953</ele>
        <time>2014-03-08T08:48:06Z</time>
      </trkpt>
      <trkpt lat="44.33941" lon="2.63971">
        <ele>671.6181641</ele>
        <time>2014-03-08T08:48:11Z</time>
      </trkpt>
      <trkpt lat="44.33933" lon="2.63948">
        <ele>672.5795898</ele>
        <time>2014-03-08T08:48:17Z</time>
      </trkpt>
      <trkpt lat="44.33925" lon="2.63926">
        <ele>674.9829102</ele>
        <time>2014-03-08T08:48:23Z</time>
      </trkpt>
      <trkpt lat="44.33919" lon="2.63914">
        <ele>675.4633789</ele>
        <time>2014-03-08T08:48:27Z</time>
      </trkpt>
      <trkpt lat="44.33908" lon="2.63913">
        <ele>676.4248047</ele>
        <time>2014-03-08T08:48:31Z</time>
      </trkpt>
      <trkpt lat="44.33891" lon="2.63919">
        <ele>677.3862305</ele>
        <time>2014-03-08T08:48:37Z</time>
      </trkpt>
      <trkpt lat="44.33873" lon="2.63921">
        <ele>677.3862305</ele>
        <time>2014-03-08T08:48:43Z</time>
      </trkpt>
      <trkpt lat="44.33858" lon="2.63915">
        <ele>676.9055176</ele>
        <time>2014-03-08T08:48:48Z</time>
      </trkpt>
      <trkpt lat="44.33851" lon="2.63902">
        <ele>676.9055176</ele>
        <time>2014-03-08T08:48:52Z</time>
      </trkpt>
      <trkpt lat="44.33848" lon="2.63886">
        <ele>675.4633789</ele>
        <time>2014-03-08T08:48:56Z</time>
      </trkpt>
      <trkpt lat="44.33848" lon="2.63865">
        <ele>675.4633789</ele>
        <time>2014-03-08T08:49:01Z</time>
      </trkpt>
      <trkpt lat="44.33848" lon="2.6384">
        <ele>676.4248047</ele>
        <time>2014-03-08T08:49:07Z</time>
      </trkpt>
      <trkpt lat="44.33849" lon="2.63818">
        <ele>676.9055176</ele>
        <time>2014-03-08T08:49:12Z</time>
      </trkpt>
      <trkpt lat="44.33849" lon="2.63801">
        <ele>676.9055176</ele>
        <time>2014-03-08T08:49:16Z</time>
      </trkpt>
      <trkpt lat="44.3385" lon="2.6378">
        <ele>676.4248047</ele>
        <time>2014-03-08T08:49:21Z</time>
      </trkpt>
      <trkpt lat="44.33851" lon="2.63762">
        <ele>676.4248047</ele>
        <time>2014-03-08T08:49:25Z</time>
      </trkpt>
      <trkpt lat="44.3385" lon="2.63737">
        <ele>675.9440918</ele>
        <time>2014-03-08T08:49:31Z</time>
      </trkpt>
      <trkpt lat="44.33851" lon="2.63715">
        <ele>675.9440918</ele>
        <time>2014-03-08T08:49:36Z</time>
      </trkpt>
      <trkpt lat="44.3385" lon="2.63685">
        <ele>675.4633789</ele>
        <time>2014-03-08T08:49:43Z</time>
      </trkpt>
      <trkpt lat="44.33849" lon="2.63669">
        <ele>675.4633789</ele>
        <time>2014-03-08T08:49:47Z</time>
      </trkpt>
      <trkpt lat="44.33845" lon="2.6365">
        <ele>675.4633789</ele>
        <time>2014-03-08T08:49:52Z</time>
      </trkpt>
      <trkpt lat="44.33839" lon="2.63627">
        <ele>675.4633789</ele>
        <time>2014-03-08T08:49:58Z</time>
      </trkpt>
      <trkpt lat="44.33835" lon="2.63607">
        <ele>675.9440918</ele>
        <time>2014-03-08T08:50:03Z</time>
      </trkpt>
      <trkpt lat="44.3383" lon="2.63583">
        <ele>676.4248047</ele>
        <time>2014-03-08T08:50:09Z</time>
      </trkpt>
      <trkpt lat="44.33827" lon="2.63563">
        <ele>675.4633789</ele>
        <time>2014-03-08T08:50:14Z</time>
      </trkpt>
      <trkpt lat="44.33825" lon="2.63543">
        <ele>674.5021973</ele>
        <time>2014-03-08T08:50:19Z</time>
      </trkpt>
      <trkpt lat="44.33823" lon="2.63522">
        <ele>673.5410156</ele>
        <time>2014-03-08T08:50:24Z</time>
      </trkpt>
      <trkpt lat="44.3382" lon="2.63496">
        <ele>672.5795898</ele>
        <time>2014-03-08T08:50:30Z</time>
      </trkpt>
      <trkpt lat="44.33818" lon="2.63471">
        <ele>672.5795898</ele>
        <time>2014-03-08T08:50:36Z</time>
      </trkpt>
      <trkpt lat="44.33818" lon="2.6345">
        <ele>671.6181641</ele>
        <time>2014-03-08T08:50:41Z</time>
      </trkpt>
      <trkpt lat="44.33818" lon="2.63432">
        <ele>671.1376953</ele>
        <time>2014-03-08T08:50:45Z</time>
      </trkpt>
      <trkpt lat="44.33819" lon="2.63409">
        <ele>669.6958008</ele>
        <time>2014-03-08T08:50:50Z</time>
      </trkpt>
      <trkpt lat="44.33819" lon="2.63388">
        <ele>669.2150879</ele>
        <time>2014-03-08T08:50:55Z</time>
      </trkpt>
      <trkpt lat="44.3382" lon="2.63372">
        <ele>668.2536621</ele>
        <time>2014-03-08T08:50:59Z</time>
      </trkpt>
      <trkpt lat="44.33821" lon="2.63356">
        <ele>666.8115234</ele>
        <time>2014-03-08T08:51:03Z</time>
      </trkpt>
      <trkpt lat="44.33821" lon="2.6333">
        <ele>664.888916</ele>
        <time>2014-03-08T08:51:09Z</time>
      </trkpt>
      <trkpt lat="44.3382" lon="2.63318">
        <ele>664.4082031</ele>
        <time>2014-03-08T08:51:12Z</time>
      </trkpt>
      <trkpt lat="44.33804" lon="2.63303">
        <ele>665.8503418</ele>
        <time>2014-03-08T08:51:18Z</time>
      </trkpt>
      <trkpt lat="44.33797" lon="2.6329">
        <ele>666.3308105</ele>
        <time>2014-03-08T08:51:22Z</time>
      </trkpt>
      <trkpt lat="44.33785" lon="2.63267">
        <ele>666.3308105</ele>
        <time>2014-03-08T08:51:28Z</time>
      </trkpt>
      <trkpt lat="44.33774" lon="2.63247">
        <ele>664.888916</ele>
        <time>2014-03-08T08:51:34Z</time>
      </trkpt>
      <trkpt lat="44.33762" lon="2.63227">
        <ele>664.4082031</ele>
        <time>2014-03-08T08:51:40Z</time>
      </trkpt>
      <trkpt lat="44.33753" lon="2.63211">
        <ele>664.888916</ele>
        <time>2014-03-08T08:51:45Z</time>
      </trkpt>
      <trkpt lat="44.33747" lon="2.63197">
        <ele>664.4082031</ele>
        <time>2014-03-08T08:51:49Z</time>
      </trkpt>
      <trkpt lat="44.33744" lon="2.63175">
        <ele>662.4855957</ele>
        <time>2014-03-08T08:51:54Z</time>
      </trkpt>
      <trkpt lat="44.33744" lon="2.63154">
        <ele>660.0822754</ele>
        <time>2014-03-08T08:51:59Z</time>
      </trkpt>
      <trkpt lat="44.33743" lon="2.63133">
        <ele>658.1599121</ele>
        <time>2014-03-08T08:52:04Z</time>
      </trkpt>
      <trkpt lat="44.33745" lon="2.63112">
        <ele>657.1984863</ele>
        <time>2014-03-08T08:52:09Z</time>
      </trkpt>
      <trkpt lat="44.33744" lon="2.63108">
        <ele>657.1984863</ele>
        <time>2014-03-08T08:52:10Z</time>
      </trkpt>
      <trkpt lat="44.33731" lon="2.63096">
        <ele>656.7177734</ele>
        <time>2014-03-08T08:52:15Z</time>
      </trkpt>
      <trkpt lat="44.33719" lon="2.63091">
        <ele>656.2370605</ele>
        <time>2014-03-08T08:52:19Z</time>
      </trkpt>
      <trkpt lat="44.33715" lon="2.63089">
        <ele>656.2370605</ele>
        <time>2014-03-08T08:52:20Z</time>
      </trkpt>
      <trkpt lat="44.33696" lon="2.63083">
        <ele>654.3146973</ele>
        <time>2014-03-08T08:52:26Z</time>
      </trkpt>
      <trkpt lat="44.33681" lon="2.63077">
        <ele>652.8725586</ele>
        <time>2014-03-08T08:52:31Z</time>
      </trkpt>
      <trkpt lat="44.33668" lon="2.63071">
        <ele>652.3918457</ele>
        <time>2014-03-08T08:52:35Z</time>
      </trkpt>
      <trkpt lat="44.33651" lon="2.63068">
        <ele>651.4304199</ele>
        <time>2014-03-08T08:52:40Z</time>
      </trkpt>
      <trkpt lat="44.33635" lon="2.63065">
        <ele>650.949707</ele>
        <time>2014-03-08T08:52:45Z</time>
      </trkpt>
      <trkpt lat="44.33619" lon="2.63062">
        <ele>651.4304199</ele>
        <time>2014-03-08T08:52:50Z</time>
      </trkpt>
      <trkpt lat="44.33604" lon="2.63057">
        <ele>651.4304199</ele>
        <time>2014-03-08T08:52:55Z</time>
      </trkpt>
      <trkpt lat="44.33587" lon="2.63048">
        <ele>650.4692383</ele>
        <time>2014-03-08T08:53:01Z</time>
      </trkpt>
      <trkpt lat="44.33578" lon="2.6303">
        <ele>649.9885254</ele>
        <time>2014-03-08T08:53:06Z</time>
      </trkpt>
      <trkpt lat="44.33574" lon="2.63014">
        <ele>649.5078125</ele>
        <time>2014-03-08T08:53:10Z</time>
      </trkpt>
      <trkpt lat="44.33574" lon="2.6299">
        <ele>648.065918</ele>
        <time>2014-03-08T08:53:15Z</time>
      </trkpt>
      <trkpt lat="44.33573" lon="2.62973">
        <ele>647.1044922</ele>
        <time>2014-03-08T08:53:19Z</time>
      </trkpt>
      <trkpt lat="44.33571" lon="2.62949">
        <ele>646.6240234</ele>
        <time>2014-03-08T08:53:25Z</time>
      </trkpt>
      <trkpt lat="44.33568" lon="2.62928">
        <ele>646.1433105</ele>
        <time>2014-03-08T08:53:31Z</time>
      </trkpt>
      <trkpt lat="44.33568" lon="2.62925">
        <ele>646.1433105</ele>
        <time>2014-03-08T08:53:32Z</time>
      </trkpt>
    </trkseg>
  </trk>
</gpx>